Observation data for Goodnight on 08/20/2019      Previous  Date       Current Mesonet Observations  Soil Data  Daily Summary Page  Observations in Plain Language
KGO1 200500Z 15008KT 28/17 A3008 RMK A01 T02810166  RH  050%=      5-min Rain = 0
KGO1 200501Z 15009KT 28/17 A3008 RMK A01 T02810166  RH  050%=      5-min Rain = 0
KGO1 200502Z 15008KT 28/17 A3008 RMK A01 T02810166  RH  050%=      5-min Rain = 0
KGO1 200503Z 15008KT 28/17 A3008 RMK A01 T02800166  RH  050%=      5-min Rain = 0
KGO1 200504Z 15009KT 28/17 A3008 RMK A01 T02800167  RH  050%=      5-min Rain = 0
KGO1 200505Z 15010KT 28/17 A3008 RMK A01 T02800167  RH  050%=      5-min Rain = 0
KGO1 200506Z 15010KT 28/17 A3008 RMK A01 T02800167  RH  050%=      5-min Rain = 0
KGO1 200507Z 15009KT 28/17 A3008 RMK A01 T02800167  RH  050%=      5-min Rain = 0
KGO1 200508Z 15009KT 28/17 A3008 RMK A01 T02800167  RH  050%=      5-min Rain = 0
KGO1 200509Z 15010KT 28/17 A3008 RMK A01 T02800168  RH  050%=      5-min Rain = 0
KGO1 200510Z 15010KT 28/17 A3008 RMK A01 T02800167  RH  050%=      5-min Rain = 0
KGO1 200511Z 15010KT 28/17 A3008 RMK A01 T02800167  RH  050%=      5-min Rain = 0
KGO1 200512Z 15011KT 28/17 A3008 RMK A01 T02810166  RH  050%=      5-min Rain = 0
KGO1 200513Z 15011KT 28/17 A3008 RMK A01 T02810166  RH  050%=      5-min Rain = 0
KGO1 200514Z 15011KT 28/17 A3008 RMK A01 T02820166  RH  050%=      5-min Rain = 0
KGO1 200515Z 15011KT 28/17 A3008 RMK A01 T02820166  RH  049%=      5-min Rain = 0
KGO1 200516Z 16009KT 28/17 A3008 RMK A01 T02830166  RH  049%=      5-min Rain = 0
KGO1 200517Z 16010KT 28/17 A3008 RMK A01 T02830167  RH  049%=      5-min Rain = 0
KGO1 200518Z 16011KT 28/17 A3008 RMK A01 T02820167  RH  050%=      5-min Rain = 0
KGO1 200519Z 16010KT 28/17 A3008 RMK A01 T02820167  RH  050%=      5-min Rain = 0
KGO1 200520Z 16011KT 28/17 A3008 RMK A01 T02820167  RH  050%=      5-min Rain = 0
KGO1 200521Z 16010KT 28/17 A3008 RMK A01 T02810167  RH  050%=      5-min Rain = 0
KGO1 200522Z 16010KT 28/17 A3008 RMK A01 T02820167  RH  050%=      5-min Rain = 0
KGO1 200523Z 16010KT 28/17 A3008 RMK A01 T02810167  RH  050%=      5-min Rain = 0
KGO1 200524Z 16011KT 28/17 A3008 RMK A01 T02800167  RH  050%=      5-min Rain = 0
KGO1 200525Z 16010KT 28/17 A3008 RMK A01 T02800167  RH  050%=      5-min Rain = 0
KGO1 200526Z 16010KT 28/17 A3008 RMK A01 T02800167  RH  050%=      5-min Rain = 0
KGO1 200527Z 16010KT 28/17 A3008 RMK A01 T02800167  RH  050%=      5-min Rain = 0
KGO1 200528Z 16011KT 28/17 A3008 RMK A01 T02800167  RH  050%=      5-min Rain = 0
KGO1 200529Z 16009KT 28/17 A3008 RMK A01 T02790167  RH  050%=      5-min Rain = 0
KGO1 200530Z 16010KT 28/17 A3008 RMK A01 T02790167  RH  051%=      5-min Rain = 0
KGO1 200531Z 16010KT 28/17 A3008 RMK A01 T02780167  RH  051%=      5-min Rain = 0
KGO1 200532Z 16010KT 28/17 A3008 RMK A01 T02780167  RH  051%=      5-min Rain = 0
KGO1 200533Z 16010KT 28/17 A3008 RMK A01 T02780167  RH  051%=      5-min Rain = 0
KGO1 200534Z 16010KT 28/17 A3008 RMK A01 T02780168  RH  051%=      5-min Rain = 0
KGO1 200535Z 16010KT 28/17 A3008 RMK A01 T02780168  RH  051%=      5-min Rain = 0
KGO1 200536Z 16010KT 28/17 A3008 RMK A01 T02770168  RH  051%=      5-min Rain = 0
KGO1 200537Z 16010KT 28/17 A3008 RMK A01 T02770168  RH  052%=      5-min Rain = 0
KGO1 200538Z 16010KT 28/17 A3008 RMK A01 T02760168  RH  052%=      5-min Rain = 0
KGO1 200539Z 16010KT 28/17 A3008 RMK A01 T02760168  RH  052%=      5-min Rain = 0
KGO1 200540Z 17010KT 28/17 A3008 RMK A01 T02750168  RH  052%=      5-min Rain = 0
KGO1 200541Z 17009KT 28/17 A3008 RMK A01 T02750168  RH  052%=      5-min Rain = 0
KGO1 200542Z 17009KT 28/17 A3008 RMK A01 T02750168  RH  052%=      5-min Rain = 0
KGO1 200543Z 17009KT 27/17 A3008 RMK A01 T02740168  RH  052%=      5-min Rain = 0
KGO1 200544Z 17008KT 27/17 A3008 RMK A01 T02740168  RH  052%=      5-min Rain = 0
KGO1 200545Z 17008KT 27/17 A3008 RMK A01 T02730168  RH  053%=      5-min Rain = 0
KGO1 200546Z 17008KT 27/17 A3008 RMK A01 T02730168  RH  053%=      5-min Rain = 0
KGO1 200547Z 17008KT 27/17 A3008 RMK A01 T02720168  RH  053%=      5-min Rain = 0
KGO1 200548Z 17008KT 27/17 A3008 RMK A01 T02710168  RH  053%=      5-min Rain = 0
KGO1 200549Z 17008KT 27/17 A3008 RMK A01 T02700168  RH  054%=      5-min Rain = 0
KGO1 200550Z 17008KT 27/17 A3008 RMK A01 T02700168  RH  054%=      5-min Rain = 0
KGO1 200551Z 17008KT 27/17 A3008 RMK A01 T02690169  RH  054%=      5-min Rain = 0
KGO1 200552Z 17008KT 27/17 A3008 RMK A01 T02690169  RH  054%=      5-min Rain = 0
KGO1 200553Z 17008KT 27/17 A3008 RMK A01 T02690169  RH  054%=      5-min Rain = 0
KGO1 200554Z 17008KT 27/17 A3008 RMK A01 T02680169  RH  054%=      5-min Rain = 0
KGO1 200555Z 17008KT 27/17 A3008 RMK A01 T02680169  RH  054%=      5-min Rain = 0
KGO1 200556Z 17008KT 27/17 A3008 RMK A01 T02680169  RH  054%=      5-min Rain = 0
KGO1 200557Z 17008KT 27/17 A3008 RMK A01 T02680169  RH  055%=      5-min Rain = 0
KGO1 200558Z 17008KT 27/17 A3008 RMK A01 T02680169  RH  055%=      5-min Rain = 0
KGO1 200559Z 17008KT 27/17 A3008 RMK A01 T02680169  RH  055%=      5-min Rain = 0
KGO1 200600Z 17008KT 27/17 A3008 RMK A01 T02680169  RH  055%=      5-min Rain = 0
KGO1 200601Z 17008KT 27/17 A3008 RMK A01 T02680169  RH  055%=      5-min Rain = 0
KGO1 200602Z 17008KT 27/17 A3008 RMK A01 T02680168  RH  054%=      5-min Rain = 0
KGO1 200603Z 17008KT 27/17 A3008 RMK A01 T02690169  RH  054%=      5-min Rain = 0
KGO1 200604Z 17007KT 27/17 A3008 RMK A01 T02690169  RH  054%=      5-min Rain = 0
KGO1 200605Z 17007KT 27/17 A3008 RMK A01 T02690168  RH  054%=      5-min Rain = 0
KGO1 200606Z 16008KT 27/17 A3008 RMK A01 T02690169  RH  054%=      5-min Rain = 0
KGO1 200607Z 16007KT 27/17 A3008 RMK A01 T02690169  RH  054%=      5-min Rain = 0
KGO1 200608Z 15007KT 27/17 A3008 RMK A01 T02680169  RH  055%=      5-min Rain = 0
KGO1 200609Z 15008KT 27/17 A3008 RMK A01 T02670169  RH  055%=      5-min Rain = 0
KGO1 200610Z 15007KT 27/17 A3008 RMK A01 T02660169  RH  055%=      5-min Rain = 0
KGO1 200611Z 15007KT 27/17 A3008 RMK A01 T02650169  RH  056%=      5-min Rain = 0
KGO1 200612Z 15008KT 26/17 A3008 RMK A01 T02640169  RH  056%=      5-min Rain = 0
KGO1 200613Z 15007KT 26/17 A3008 RMK A01 T02640169  RH  056%=      5-min Rain = 0
KGO1 200614Z 14007KT 26/17 A3008 RMK A01 T02630169  RH  056%=      5-min Rain = 0
KGO1 200615Z 15008KT 26/17 A3008 RMK A01 T02620169  RH  056%=      5-min Rain = 0
KGO1 200616Z 15008KT 26/17 A3008 RMK A01 T02620169  RH  056%=      5-min Rain = 0
KGO1 200617Z 15008KT 26/17 A3008 RMK A01 T02620169  RH  056%=      5-min Rain = 0
KGO1 200618Z 15008KT 26/17 A3008 RMK A01 T02620169  RH  057%=      5-min Rain = 0
KGO1 200619Z 15008KT 26/17 A3008 RMK A01 T02610169  RH  057%=      5-min Rain = 0
KGO1 200620Z 15007KT 26/17 A3008 RMK A01 T02610169  RH  057%=      5-min Rain = 0
KGO1 200621Z 15008KT 26/17 A3009 RMK A01 T02610169  RH  057%=      5-min Rain = 0
KGO1 200622Z 15008KT 26/17 A3008 RMK A01 T02610169  RH  057%=      5-min Rain = 0
KGO1 200623Z 15008KT 26/17 A3008 RMK A01 T02610168  RH  057%=      5-min Rain = 0
KGO1 200624Z 15008KT 26/17 A3008 RMK A01 T02610169  RH  057%=      5-min Rain = 0
KGO1 200625Z 14009KT 26/17 A3008 RMK A01 T02610169  RH  057%=      5-min Rain = 0
KGO1 200626Z 15009KT 26/17 A3008 RMK A01 T02610169  RH  057%=      5-min Rain = 0
KGO1 200627Z 15009KT 26/17 A3008 RMK A01 T02610170  RH  057%=      5-min Rain = 0
KGO1 200628Z 15008KT 26/17 A3008 RMK A01 T02610170  RH  057%=      5-min Rain = 0
KGO1 200629Z 15008KT 26/17 A3009 RMK A01 T02610170  RH  057%=      5-min Rain = 0
KGO1 200630Z 15008KT 26/17 A3009 RMK A01 T02610169  RH  057%=      5-min Rain = 0
KGO1 200631Z 15009KT 26/17 A3009 RMK A01 T02620170  RH  057%=      5-min Rain = 0
KGO1 200632Z 15009KT 26/17 A3009 RMK A01 T02620170  RH  057%=      5-min Rain = 0
KGO1 200633Z 15009KT 26/17 A3009 RMK A01 T02630170  RH  056%=      5-min Rain = 0
KGO1 200634Z 15009KT 26/17 A3009 RMK A01 T02640169  RH  056%=      5-min Rain = 0
KGO1 200635Z 15009KT 26/17 A3009 RMK A01 T02640169  RH  056%=      5-min Rain = 0
KGO1 200636Z 15009KT 27/17 A3009 RMK A01 T02660169  RH  055%=      5-min Rain = 0
KGO1 200637Z 15009KT 27/17 A3009 RMK A01 T02670169  RH  055%=      5-min Rain = 0
KGO1 200638Z 14009KT 27/17 A3009 RMK A01 T02670169  RH  055%=      5-min Rain = 0
KGO1 200639Z 14008KT 27/17 A3009 RMK A01 T02670169  RH  055%=      5-min Rain = 0
KGO1 200640Z 14008KT 27/17 A3009 RMK A01 T02670169  RH  055%=      5-min Rain = 0
KGO1 200641Z 14007KT 27/17 A3009 RMK A01 T02670169  RH  055%=      5-min Rain = 0
KGO1 200642Z 14007KT 27/17 A3009 RMK A01 T02660169  RH  055%=      5-min Rain = 0
KGO1 200643Z 14007KT 27/17 A3009 RMK A01 T02650169  RH  056%=      5-min Rain = 0
KGO1 200644Z 14007KT 27/17 A3009 RMK A01 T02650169  RH  056%=      5-min Rain = 0
KGO1 200645Z 14007KT 27/17 A3009 RMK A01 T02650169  RH  056%=      5-min Rain = 0
KGO1 200646Z 14007KT 26/17 A3009 RMK A01 T02640169  RH  056%=      5-min Rain = 0
KGO1 200647Z 14006KT 27/17 A3009 RMK A01 T02650169  RH  056%=      5-min Rain = 0
KGO1 200648Z 13005KT 26/17 A3009 RMK A01 T02640169  RH  056%=      5-min Rain = 0
KGO1 200649Z 13006KT 26/17 A3009 RMK A01 T02640170  RH  056%=      5-min Rain = 0
KGO1 200650Z 13005KT 26/17 A3009 RMK A01 T02620169  RH  056%=      5-min Rain = 0
KGO1 200651Z 13005KT 26/17 A3009 RMK A01 T02620169  RH  057%=      5-min Rain = 0
KGO1 200652Z 13005KT 26/17 A3009 RMK A01 T02600169  RH  057%=      5-min Rain = 0
KGO1 200653Z 13005KT 26/17 A3009 RMK A01 T02590169  RH  058%=      5-min Rain = 0
KGO1 200654Z 14005KT 26/17 A3009 RMK A01 T02580169  RH  058%=      5-min Rain = 0
KGO1 200655Z 14005KT 26/17 A3009 RMK A01 T02570169  RH  058%=      5-min Rain = 0
KGO1 200656Z 14005KT 26/17 A3009 RMK A01 T02560169  RH  059%=      5-min Rain = 0
KGO1 200657Z 15005KT 26/17 A3009 RMK A01 T02560169  RH  059%=      5-min Rain = 0
KGO1 200658Z 15005KT 26/17 A3009 RMK A01 T02560169  RH  059%=      5-min Rain = 0
KGO1 200659Z 15005KT 26/17 A3009 RMK A01 T02560169  RH  059%=      5-min Rain = 0
KGO1 200700Z 15005KT 26/17 A3009 RMK A01 T02560170  RH  059%=      5-min Rain = 0
KGO1 200701Z 16005KT 26/17 A3009 RMK A01 T02560170  RH  059%=      5-min Rain = 0
KGO1 200702Z 16005KT 26/17 A3009 RMK A01 T02550170  RH  059%=      5-min Rain = 0
KGO1 200703Z 16006KT 26/17 A3009 RMK A01 T02550170  RH  059%=      5-min Rain = 0
KGO1 200704Z 16006KT 26/17 A3009 RMK A01 T02550170  RH  059%=      5-min Rain = 0
KGO1 200705Z 16006KT 25/17 A3009 RMK A01 T02540169  RH  059%=      5-min Rain = 0
KGO1 200706Z 16006KT 26/17 A3009 RMK A01 T02550169  RH  059%=      5-min Rain = 0
KGO1 200707Z 16007KT 26/17 A3009 RMK A01 T02560169  RH  059%=      5-min Rain = 0
KGO1 200708Z 16007KT 26/17 A3009 RMK A01 T02560169  RH  059%=      5-min Rain = 0
KGO1 200709Z 16007KT 26/17 A3009 RMK A01 T02560169  RH  058%=      5-min Rain = 0
KGO1 200710Z 16007KT 26/17 A3009 RMK A01 T02570169  RH  058%=      5-min Rain = 0
KGO1 200711Z 16007KT 26/17 A3008 RMK A01 T02570169  RH  058%=      5-min Rain = 0
KGO1 200712Z 16007KT 26/17 A3008 RMK A01 T02580169  RH  058%=      5-min Rain = 0
KGO1 200713Z 16008KT 26/17 A3008 RMK A01 T02580168  RH  058%=      5-min Rain = 0
KGO1 200714Z 16008KT 26/17 A3008 RMK A01 T02590168  RH  057%=      5-min Rain = 0
KGO1 200715Z 16007KT 26/17 A3008 RMK A01 T02600169  RH  057%=      5-min Rain = 0
KGO1 200716Z 16008KT 26/17 A3008 RMK A01 T02600168  RH  057%=      5-min Rain = 0
KGO1 200717Z 16008KT 26/17 A3008 RMK A01 T02600168  RH  057%=      5-min Rain = 0
KGO1 200718Z 16008KT 26/17 A3008 RMK A01 T02600168  RH  057%=      5-min Rain = 0
KGO1 200719Z 16007KT 26/17 A3008 RMK A01 T02610168  RH  057%=      5-min Rain = 0
KGO1 200720Z 16007KT 26/17 A3008 RMK A01 T02610168  RH  057%=      5-min Rain = 0
KGO1 200721Z 16006KT 26/17 A3008 RMK A01 T02610168  RH  056%=      5-min Rain = 0
KGO1 200722Z 16005KT 26/17 A3008 RMK A01 T02610169  RH  057%=      5-min Rain = 0
KGO1 200723Z 16006KT 26/17 A3008 RMK A01 T02610168  RH  057%=      5-min Rain = 0
KGO1 200724Z 16006KT 26/17 A3008 RMK A01 T02600168  RH  057%=      5-min Rain = 0
KGO1 200725Z 16006KT 26/17 A3008 RMK A01 T02590168  RH  057%=      5-min Rain = 0
KGO1 200726Z 17005KT 26/17 A3008 RMK A01 T02590168  RH  057%=      5-min Rain = 0
KGO1 200727Z 17005KT 26/17 A3008 RMK A01 T02590169  RH  058%=      5-min Rain = 0
KGO1 200728Z 17005KT 26/17 A3008 RMK A01 T02580168  RH  058%=      5-min Rain = 0
KGO1 200729Z 17005KT 26/17 A3008 RMK A01 T02570169  RH  058%=      5-min Rain = 0
KGO1 200730Z 17005KT 26/17 A3008 RMK A01 T02560168  RH  058%=      5-min Rain = 0
KGO1 200731Z 16005KT 26/17 A3008 RMK A01 T02560169  RH  059%=      5-min Rain = 0
KGO1 200732Z 16005KT 26/17 A3008 RMK A01 T02550169  RH  059%=      5-min Rain = 0
KGO1 200733Z 15004KT 25/17 A3008 RMK A01 T02540169  RH  059%=      5-min Rain = 0
KGO1 200734Z 15005KT 25/17 A3008 RMK A01 T02530169  RH  060%=      5-min Rain = 0
KGO1 200735Z 15005KT 25/17 A3009 RMK A01 T02520169  RH  060%=      5-min Rain = 0
KGO1 200736Z 15006KT 25/17 A3009 RMK A01 T02510169  RH  060%=      5-min Rain = 0
KGO1 200737Z 15006KT 25/17 A3008 RMK A01 T02500169  RH  061%=      5-min Rain = 0
KGO1 200738Z 15006KT 25/17 A3008 RMK A01 T02500169  RH  061%=      5-min Rain = 0
KGO1 200739Z 15006KT 25/17 A3008 RMK A01 T02500169  RH  061%=      5-min Rain = 0
KGO1 200740Z 15007KT 25/17 A3008 RMK A01 T02510169  RH  061%=      5-min Rain = 0
KGO1 200741Z 15007KT 25/17 A3008 RMK A01 T02510169  RH  060%=      5-min Rain = 0
KGO1 200742Z 15007KT 25/17 A3008 RMK A01 T02520170  RH  060%=      5-min Rain = 0
KGO1 200743Z 15006KT 25/17 A3008 RMK A01 T02520169  RH  060%=      5-min Rain = 0
KGO1 200744Z 16006KT 25/17 A3008 RMK A01 T02520170  RH  060%=      5-min Rain = 0
KGO1 200745Z 16006KT 25/17 A3008 RMK A01 T02520170  RH  060%=      5-min Rain = 0
KGO1 200746Z 16007KT 25/17 A3008 RMK A01 T02520170  RH  060%=      5-min Rain = 0
KGO1 200747Z 16007KT 25/17 A3008 RMK A01 T02520170  RH  060%=      5-min Rain = 0
KGO1 200748Z 16007KT 25/17 A3008 RMK A01 T02520170  RH  060%=      5-min Rain = 0
KGO1 200749Z 16006KT 25/17 A3008 RMK A01 T02530170  RH  060%=      5-min Rain = 0
KGO1 200750Z 16006KT 25/17 A3008 RMK A01 T02530170  RH  060%=      5-min Rain = 0
KGO1 200751Z 15006KT 25/17 A3008 RMK A01 T02530170  RH  060%=      5-min Rain = 0
KGO1 200752Z 15006KT 25/17 A3008 RMK A01 T02530170  RH  060%=      5-min Rain = 0
KGO1 200753Z 15006KT 25/17 A3008 RMK A01 T02520170  RH  060%=      5-min Rain = 0
KGO1 200754Z 15006KT 25/17 A3008 RMK A01 T02520171  RH  061%=      5-min Rain = 0
KGO1 200755Z 15006KT 25/17 A3009 RMK A01 T02520170  RH  061%=      5-min Rain = 0
KGO1 200756Z 15006KT 25/17 A3009 RMK A01 T02520171  RH  061%=      5-min Rain = 0
KGO1 200757Z 15006KT 25/17 A3009 RMK A01 T02520171  RH  061%=      5-min Rain = 0
KGO1 200758Z 15006KT 25/17 A3009 RMK A01 T02520171  RH  061%=      5-min Rain = 0
KGO1 200759Z 15006KT 25/17 A3009 RMK A01 T02520171  RH  061%=      5-min Rain = 0
KGO1 200800Z 14006KT 25/17 A3009 RMK A01 T02520171  RH  061%=      5-min Rain = 0
KGO1 200801Z 14006KT 25/17 A3009 RMK A01 T02520171  RH  061%=      5-min Rain = 0
KGO1 200802Z 14006KT 25/17 A3009 RMK A01 T02520171  RH  061%=      5-min Rain = 0
KGO1 200803Z 14005KT 25/17 A3009 RMK A01 T02510171  RH  061%=      5-min Rain = 0
KGO1 200804Z 14005KT 25/17 A3009 RMK A01 T02510171  RH  061%=      5-min Rain = 0
KGO1 200805Z 14005KT 25/17 A3009 RMK A01 T02500171  RH  062%=      5-min Rain = 0
KGO1 200806Z 14005KT 25/17 A3009 RMK A01 T02490172  RH  062%=      5-min Rain = 0
KGO1 200807Z 14005KT 25/17 A3009 RMK A01 T02490171  RH  062%=      5-min Rain = 0
KGO1 200808Z 14005KT 25/17 A3009 RMK A01 T02480171  RH  062%=      5-min Rain = 0
KGO1 200809Z 14005KT 25/17 A3009 RMK A01 T02480171  RH  062%=      5-min Rain = 0
KGO1 200810Z 14005KT 25/17 A3009 RMK A01 T02470171  RH  063%=      5-min Rain = 0
KGO1 200811Z 14004KT 25/17 A3009 RMK A01 T02470171  RH  063%=      5-min Rain = 0
KGO1 200812Z 14004KT 25/17 A3009 RMK A01 T02470171  RH  063%=      5-min Rain = 0
KGO1 200813Z 15005KT 25/17 A3009 RMK A01 T02460171  RH  063%=      5-min Rain = 0
KGO1 200814Z 15005KT 25/17 A3009 RMK A01 T02460171  RH  063%=      5-min Rain = 0
KGO1 200815Z 15005KT 25/17 A3009 RMK A01 T02460171  RH  063%=      5-min Rain = 0
KGO1 200816Z 15005KT 25/17 A3009 RMK A01 T02450171  RH  063%=      5-min Rain = 0
KGO1 200817Z 15005KT 25/17 A3009 RMK A01 T02450171  RH  063%=      5-min Rain = 0
KGO1 200818Z 16005KT 25/17 A3009 RMK A01 T02450171  RH  063%=      5-min Rain = 0
KGO1 200819Z 16005KT 25/17 A3009 RMK A01 T02460172  RH  063%=      5-min Rain = 0
KGO1 200820Z 16006KT 25/17 A3009 RMK A01 T02450171  RH  063%=      5-min Rain = 0
KGO1 200821Z 16006KT 25/17 A3009 RMK A01 T02450171  RH  063%=      5-min Rain = 0
KGO1 200822Z 16006KT 25/17 A3009 RMK A01 T02460172  RH  063%=      5-min Rain = 0
KGO1 200823Z 16006KT 25/17 A3009 RMK A01 T02460172  RH  063%=      5-min Rain = 0
KGO1 200824Z 16006KT 25/17 A3009 RMK A01 T02460172  RH  063%=      5-min Rain = 0
KGO1 200825Z 16006KT 25/17 A3009 RMK A01 T02470172  RH  063%=      5-min Rain = 0
KGO1 200826Z 16007KT 25/17 A3009 RMK A01 T02480172  RH  063%=      5-min Rain = 0
KGO1 200827Z 16008KT 25/17 A3009 RMK A01 T02490172  RH  062%=      5-min Rain = 0
KGO1 200828Z 16008KT 25/17 A3009 RMK A01 T02500172  RH  062%=      5-min Rain = 0
KGO1 200829Z 16008KT 25/17 A3009 RMK A01 T02510172  RH  062%=      5-min Rain = 0
KGO1 200830Z 16008KT 25/17 A3009 RMK A01 T02520172  RH  061%=      5-min Rain = 0
KGO1 200831Z 16008KT 25/17 A3009 RMK A01 T02530172  RH  061%=      5-min Rain = 0
KGO1 200832Z 16008KT 25/17 A3009 RMK A01 T02540172  RH  060%=      5-min Rain = 0
KGO1 200833Z 16008KT 25/17 A3009 RMK A01 T02540172  RH  060%=      5-min Rain = 0
KGO1 200834Z 16008KT 26/17 A3009 RMK A01 T02550172  RH  060%=      5-min Rain = 0
KGO1 200835Z 16009KT 26/17 A3009 RMK A01 T02550172  RH  060%=      5-min Rain = 0
KGO1 200836Z 16008KT 26/17 A3009 RMK A01 T02560172  RH  060%=      5-min Rain = 0
KGO1 200837Z 17007KT 26/17 A3009 RMK A01 T02560172  RH  060%=      5-min Rain = 0
KGO1 200838Z 16008KT 26/17 A3009 RMK A01 T02560172  RH  060%=      5-min Rain = 0
KGO1 200839Z 16007KT 26/17 A3009 RMK A01 T02560172  RH  060%=      5-min Rain = 0
KGO1 200840Z 16008KT 26/17 A3009 RMK A01 T02560172  RH  060%=      5-min Rain = 0
KGO1 200841Z 16007KT 26/17 A3009 RMK A01 T02560172  RH  060%=      5-min Rain = 0
KGO1 200842Z 16007KT 26/17 A3009 RMK A01 T02560172  RH  060%=      5-min Rain = 0
KGO1 200843Z 16008KT 26/17 A3009 RMK A01 T02560172  RH  060%=      5-min Rain = 0
KGO1 200844Z 16008KT 26/17 A3009 RMK A01 T02550172  RH  060%=      5-min Rain = 0
KGO1 200845Z 16008KT 26/17 A3009 RMK A01 T02550172  RH  060%=      5-min Rain = 0
KGO1 200846Z 16007KT 25/17 A3009 RMK A01 T02540173  RH  061%=      5-min Rain = 0
KGO1 200847Z 16008KT 25/17 A3009 RMK A01 T02530172  RH  061%=      5-min Rain = 0
KGO1 200848Z 16009KT 25/17 A3009 RMK A01 T02530172  RH  061%=      5-min Rain = 0
KGO1 200849Z 16008KT 25/17 A3009 RMK A01 T02530172  RH  061%=      5-min Rain = 0
KGO1 200850Z 16008KT 25/17 A3009 RMK A01 T02540172  RH  060%=      5-min Rain = 0
KGO1 200851Z 16009KT 25/17 A3009 RMK A01 T02540172  RH  060%=      5-min Rain = 0
KGO1 200852Z 16008KT 25/17 A3009 RMK A01 T02540172  RH  061%=      5-min Rain = 0
KGO1 200853Z 16008KT 25/17 A3009 RMK A01 T02540173  RH  061%=      5-min Rain = 0
KGO1 200854Z 16008KT 25/17 A3009 RMK A01 T02530173  RH  061%=      5-min Rain = 0
KGO1 200855Z 16008KT 25/17 A3009 RMK A01 T02530173  RH  061%=      5-min Rain = 0
KGO1 200856Z 16008KT 25/17 A3009 RMK A01 T02520172  RH  061%=      5-min Rain = 0
KGO1 200857Z 16008KT 25/17 A3009 RMK A01 T02530173  RH  061%=      5-min Rain = 0
KGO1 200858Z 17009KT 25/17 A3009 RMK A01 T02530173  RH  061%=      5-min Rain = 0
KGO1 200859Z 16009KT 25/17 A3009 RMK A01 T02520173  RH  061%=      5-min Rain = 0
KGO1 200900Z 17009KT 25/17 A3009 RMK A01 T02530173  RH  061%=      5-min Rain = 0
KGO1 200901Z 17008KT 25/17 A3009 RMK A01 T02530173  RH  061%=      5-min Rain = 0
KGO1 200902Z 17009KT 25/17 A3009 RMK A01 T02530173  RH  061%=      5-min Rain = 0
KGO1 200903Z 17008KT 25/17 A3009 RMK A01 T02530173  RH  061%=      5-min Rain = 0
KGO1 200904Z 17008KT 25/17 A3009 RMK A01 T02530173  RH  061%=      5-min Rain = 0
KGO1 200905Z 17008KT 25/17 A3009 RMK A01 T02530173  RH  061%=      5-min Rain = 0
KGO1 200906Z 17008KT 25/17 A3009 RMK A01 T02530173  RH  061%=      5-min Rain = 0
KGO1 200907Z 17008KT 25/17 A3009 RMK A01 T02530173  RH  061%=      5-min Rain = 0
KGO1 200908Z 17008KT 25/17 A3009 RMK A01 T02530173  RH  061%=      5-min Rain = 0
KGO1 200909Z 17008KT 25/17 A3009 RMK A01 T02520173  RH  062%=      5-min Rain = 0
KGO1 200910Z 17008KT 25/17 A3009 RMK A01 T02520173  RH  062%=      5-min Rain = 0
KGO1 200911Z 17008KT 25/17 A3009 RMK A01 T02510173  RH  062%=      5-min Rain = 0
KGO1 200912Z 17008KT 25/17 A3009 RMK A01 T02510173  RH  062%=      5-min Rain = 0
KGO1 200913Z 17008KT 25/17 A3009 RMK A01 T02510173  RH  062%=      5-min Rain = 0
KGO1 200914Z 17008KT 25/17 A3009 RMK A01 T02510173  RH  062%=      5-min Rain = 0
KGO1 200915Z 17007KT 25/17 A3009 RMK A01 T02500173  RH  062%=      5-min Rain = 0
KGO1 200916Z 17007KT 25/17 A3009 RMK A01 T02500174  RH  062%=      5-min Rain = 0
KGO1 200917Z 17008KT 25/17 A3009 RMK A01 T02500174  RH  062%=      5-min Rain = 0
KGO1 200918Z 17007KT 25/17 A3009 RMK A01 T02500174  RH  063%=      5-min Rain = 0
KGO1 200919Z 17007KT 25/17 A3009 RMK A01 T02500174  RH  063%=      5-min Rain = 0
KGO1 200920Z 18007KT 25/17 A3009 RMK A01 T02490174  RH  063%=      5-min Rain = 0
KGO1 200921Z 18007KT 25/17 A3009 RMK A01 T02490174  RH  063%=      5-min Rain = 0
KGO1 200922Z 18007KT 25/17 A3009 RMK A01 T02490174  RH  063%=      5-min Rain = 0
KGO1 200923Z 18008KT 25/17 A3009 RMK A01 T02480174  RH  063%=      5-min Rain = 0
KGO1 200924Z 18007KT 25/17 A3009 RMK A01 T02480174  RH  063%=      5-min Rain = 0
KGO1 200925Z 18008KT 25/17 A3009 RMK A01 T02480174  RH  064%=      5-min Rain = 0
KGO1 200926Z 18008KT 25/17 A3009 RMK A01 T02470174  RH  064%=      5-min Rain = 0
KGO1 200927Z 17007KT 25/17 A3009 RMK A01 T02470174  RH  064%=      5-min Rain = 0
KGO1 200928Z 17008KT 25/17 A3009 RMK A01 T02470174  RH  064%=      5-min Rain = 0
KGO1 200929Z 17008KT 25/17 A3009 RMK A01 T02470174  RH  064%=      5-min Rain = 0
KGO1 200930Z 17008KT 25/17 A3009 RMK A01 T02470174  RH  064%=      5-min Rain = 0
KGO1 200931Z 17008KT 25/17 A3009 RMK A01 T02470174  RH  064%=      5-min Rain = 0
KGO1 200932Z 17008KT 25/17 A3009 RMK A01 T02470174  RH  064%=      5-min Rain = 0
KGO1 200933Z 17009KT 25/17 A3009 RMK A01 T02460174  RH  064%=      5-min Rain = 0
KGO1 200934Z 17009KT 25/17 A3009 RMK A01 T02470174  RH  064%=      5-min Rain = 0
KGO1 200935Z 17008KT 25/17 A3009 RMK A01 T02470174  RH  064%=      5-min Rain = 0
KGO1 200936Z 17008KT 25/17 A3009 RMK A01 T02470174  RH  064%=      5-min Rain = 0
KGO1 200937Z 17008KT 25/17 A3009 RMK A01 T02470174  RH  064%=      5-min Rain = 0
KGO1 200938Z 17009KT 25/17 A3009 RMK A01 T02470174  RH  064%=      5-min Rain = 0
KGO1 200939Z 17008KT 25/17 A3009 RMK A01 T02470174  RH  064%=      5-min Rain = 0
KGO1 200940Z 17008KT 25/17 A3009 RMK A01 T02470174  RH  064%=      5-min Rain = 0
KGO1 200941Z 17007KT 25/18 A3009 RMK A01 T02480175  RH  064%=      5-min Rain = 0
KGO1 200942Z 17007KT 25/17 A3009 RMK A01 T02470174  RH  064%=      5-min Rain = 0
KGO1 200943Z 17007KT 25/18 A3009 RMK A01 T02480175  RH  064%=      5-min Rain = 0
KGO1 200944Z 17007KT 25/18 A3009 RMK A01 T02480175  RH  064%=      5-min Rain = 0
KGO1 200945Z 17007KT 25/17 A3009 RMK A01 T02470174  RH  064%=      5-min Rain = 0
KGO1 200946Z 17007KT 25/17 A3009 RMK A01 T02480174  RH  064%=      5-min Rain = 0
KGO1 200947Z 17006KT 25/18 A3009 RMK A01 T02480175  RH  064%=      5-min Rain = 0
KGO1 200948Z 17007KT 25/17 A3009 RMK A01 T02480174  RH  064%=      5-min Rain = 0
KGO1 200949Z 17006KT 25/18 A3009 RMK A01 T02480175  RH  064%=      5-min Rain = 0
KGO1 200950Z 17007KT 25/17 A3009 RMK A01 T02470174  RH  064%=      5-min Rain = 0
KGO1 200951Z 17006KT 25/17 A3009 RMK A01 T02470174  RH  064%=      5-min Rain = 0
KGO1 200952Z 17007KT 25/17 A3009 RMK A01 T02470174  RH  064%=      5-min Rain = 0
KGO1 200953Z 17006KT 25/18 A3009 RMK A01 T02460175  RH  064%=      5-min Rain = 0
KGO1 200954Z 17006KT 25/18 A3009 RMK A01 T02460175  RH  065%=      5-min Rain = 0
KGO1 200955Z 17006KT 25/17 A3009 RMK A01 T02450174  RH  065%=      5-min Rain = 0
KGO1 200956Z 18006KT 24/17 A3009 RMK A01 T02440174  RH  065%=      5-min Rain = 0
KGO1 200957Z 18006KT 24/18 A3009 RMK A01 T02440175  RH  065%=      5-min Rain = 0
KGO1 200958Z 18006KT 24/18 A3009 RMK A01 T02430175  RH  066%=      5-min Rain = 0
KGO1 200959Z 18006KT 24/17 A3009 RMK A01 T02420174  RH  066%=      5-min Rain = 0
KGO1 201000Z 18006KT 24/18 A301 RMK A01 T02420175  RH  066%=      5-min Rain = 0
KGO1 201001Z 18006KT 24/18 A301 RMK A01 T02420175  RH  066%=      5-min Rain = 0
KGO1 201002Z 18007KT 24/18 A301 RMK A01 T02420175  RH  066%=      5-min Rain = 0
KGO1 201003Z 18007KT 24/18 A301 RMK A01 T02420175  RH  066%=      5-min Rain = 0
KGO1 201004Z 18007KT 24/18 A301 RMK A01 T02420175  RH  066%=      5-min Rain = 0
KGO1 201005Z 18006KT 24/18 A301 RMK A01 T02420175  RH  066%=      5-min Rain = 0
KGO1 201006Z 18006KT 24/18 A301 RMK A01 T02420175  RH  066%=      5-min Rain = 0
KGO1 201007Z 18006KT 24/18 A301 RMK A01 T02420175  RH  066%=      5-min Rain = 0
KGO1 201008Z 18006KT 24/18 A301 RMK A01 T02420175  RH  066%=      5-min Rain = 0
KGO1 201009Z 18006KT 24/18 A301 RMK A01 T02410175  RH  066%=      5-min Rain = 0
KGO1 201010Z 18006KT 24/18 A301 RMK A01 T02410175  RH  067%=      5-min Rain = 0
KGO1 201011Z 18006KT 24/18 A301 RMK A01 T02410175  RH  067%=      5-min Rain = 0
KGO1 201012Z 18006KT 24/18 A301 RMK A01 T02410175  RH  067%=      5-min Rain = 0
KGO1 201013Z 18005KT 24/18 A301 RMK A01 T02400175  RH  067%=      5-min Rain = 0
KGO1 201014Z 18006KT 24/18 A301 RMK A01 T02400175  RH  067%=      5-min Rain = 0
KGO1 201015Z 18006KT 24/18 A301 RMK A01 T02400176  RH  067%=      5-min Rain = 0
KGO1 201016Z 18006KT 24/18 A301 RMK A01 T02390175  RH  067%=      5-min Rain = 0
KGO1 201017Z 18006KT 24/18 A301 RMK A01 T02390176  RH  067%=      5-min Rain = 0
KGO1 201018Z 18006KT 24/18 A301 RMK A01 T02390176  RH  068%=      5-min Rain = 0
KGO1 201019Z 18006KT 24/18 A301 RMK A01 T02380176  RH  068%=      5-min Rain = 0
KGO1 201020Z 18006KT 24/18 A301 RMK A01 T02380175  RH  068%=      5-min Rain = 0
KGO1 201021Z 18006KT 24/18 A301 RMK A01 T02380176  RH  068%=      5-min Rain = 0
KGO1 201022Z 18006KT 24/18 A301 RMK A01 T02380176  RH  068%=      5-min Rain = 0
KGO1 201023Z 18006KT 24/18 A301 RMK A01 T02380176  RH  068%=      5-min Rain = 0
KGO1 201024Z 18006KT 24/18 A301 RMK A01 T02370175  RH  068%=      5-min Rain = 0
KGO1 201025Z 17006KT 24/18 A301 RMK A01 T02370175  RH  068%=      5-min Rain = 0
KGO1 201026Z 17006KT 24/18 A301 RMK A01 T02380176  RH  068%=      5-min Rain = 0
KGO1 201027Z 18007KT 24/18 A301 RMK A01 T02370176  RH  068%=      5-min Rain = 0
KGO1 201028Z 18007KT 24/18 A301 RMK A01 T02380175  RH  068%=      5-min Rain = 0
KGO1 201029Z 18007KT 24/18 A301 RMK A01 T02380176  RH  068%=      5-min Rain = 0
KGO1 201030Z 18007KT 24/18 A301 RMK A01 T02370175  RH  068%=      5-min Rain = 0
KGO1 201031Z 18007KT 24/18 A301 RMK A01 T02380176  RH  068%=      5-min Rain = 0
KGO1 201032Z 18007KT 24/18 A301 RMK A01 T02370175  RH  068%=      5-min Rain = 0
KGO1 201033Z 18007KT 24/18 A301 RMK A01 T02380176  RH  068%=      5-min Rain = 0
KGO1 201034Z 18007KT 24/18 A301 RMK A01 T02370175  RH  068%=      5-min Rain = 0
KGO1 201035Z 18007KT 24/18 A301 RMK A01 T02370175  RH  068%=      5-min Rain = 0
KGO1 201036Z 18007KT 24/18 A301 RMK A01 T02370175  RH  068%=      5-min Rain = 0
KGO1 201037Z 18007KT 24/18 A301 RMK A01 T02370175  RH  068%=      5-min Rain = 0
KGO1 201038Z 18007KT 24/18 A301 RMK A01 T02370175  RH  068%=      5-min Rain = 0
KGO1 201039Z 18007KT 24/18 A301 RMK A01 T02370175  RH  068%=      5-min Rain = 0
KGO1 201040Z 18007KT 24/18 A301 RMK A01 T02370175  RH  068%=      5-min Rain = 0
KGO1 201041Z 18007KT 24/18 A301 RMK A01 T02370175  RH  068%=      5-min Rain = 0
KGO1 201042Z 18007KT 24/18 A301 RMK A01 T02370175  RH  068%=      5-min Rain = 0
KGO1 201043Z 18007KT 24/18 A301 RMK A01 T02370175  RH  068%=      5-min Rain = 0
KGO1 201044Z 18007KT 24/18 A301 RMK A01 T02370175  RH  068%=      5-min Rain = 0
KGO1 201045Z 17007KT 24/18 A301 RMK A01 T02370175  RH  068%=      5-min Rain = 0
KGO1 201046Z 17007KT 24/18 A301 RMK A01 T02370175  RH  068%=      5-min Rain = 0
KGO1 201047Z 17007KT 24/18 A301 RMK A01 T02370175  RH  068%=      5-min Rain = 0
KGO1 201048Z 18006KT 24/18 A301 RMK A01 T02370175  RH  068%=      5-min Rain = 0
KGO1 201049Z 18006KT 24/18 A301 RMK A01 T02370175  RH  068%=      5-min Rain = 0
KGO1 201050Z 18006KT 24/18 A301 RMK A01 T02360175  RH  068%=      5-min Rain = 0
KGO1 201051Z 18006KT 24/18 A301 RMK A01 T02360175  RH  068%=      5-min Rain = 0
KGO1 201052Z 18006KT 24/18 A301 RMK A01 T02360175  RH  068%=      5-min Rain = 0
KGO1 201053Z 18006KT 24/18 A301 RMK A01 T02360175  RH  069%=      5-min Rain = 0
KGO1 201054Z 18006KT 24/18 A301 RMK A01 T02360175  RH  069%=      5-min Rain = 0
KGO1 201055Z 18006KT 24/18 A301 RMK A01 T02360175  RH  069%=      5-min Rain = 0
KGO1 201056Z 18006KT 24/18 A301 RMK A01 T02350175  RH  069%=      5-min Rain = 0
KGO1 201057Z 18005KT 24/18 A301 RMK A01 T02350175  RH  069%=      5-min Rain = 0
KGO1 201058Z 18005KT 23/18 A301 RMK A01 T02340176  RH  070%=      5-min Rain = 0
KGO1 201059Z 18005KT 23/18 A301 RMK A01 T02340176  RH  070%=      5-min Rain = 0
KGO1 201100Z 19006KT 23/18 A301 RMK A01 T02340176  RH  070%=      5-min Rain = 0
KGO1 201101Z 19006KT 23/18 A301 RMK A01 T02330176  RH  070%=      5-min Rain = 0
KGO1 201102Z 19006KT 23/18 A301 RMK A01 T02330176  RH  070%=      5-min Rain = 0
KGO1 201103Z 19006KT 23/18 A301 RMK A01 T02330176  RH  070%=      5-min Rain = 0
KGO1 201104Z 20006KT 23/18 A301 RMK A01 T02330176  RH  070%=      5-min Rain = 0
KGO1 201105Z 20006KT 23/18 A301 RMK A01 T02330176  RH  070%=      5-min Rain = 0
KGO1 201106Z 20007KT 23/18 A301 RMK A01 T02330176  RH  070%=      5-min Rain = 0
KGO1 201107Z 20007KT 23/18 A301 RMK A01 T02330176  RH  070%=      5-min Rain = 0
KGO1 201108Z 20007KT 23/18 A301 RMK A01 T02340176  RH  070%=      5-min Rain = 0
KGO1 201109Z 20006KT 23/18 A301 RMK A01 T02340177  RH  070%=      5-min Rain = 0
KGO1 201110Z 20006KT 24/18 A301 RMK A01 T02350177  RH  070%=      5-min Rain = 0
KGO1 201111Z 19006KT 24/18 A301 RMK A01 T02350177  RH  070%=      5-min Rain = 0
KGO1 201112Z 19006KT 24/18 A301 RMK A01 T02350177  RH  070%=      5-min Rain = 0
KGO1 201113Z 19006KT 24/18 A301 RMK A01 T02350177  RH  070%=      5-min Rain = 0
KGO1 201114Z 19006KT 24/18 A301 RMK A01 T02350177  RH  070%=      5-min Rain = 0
KGO1 201115Z 19006KT 24/18 A301 RMK A01 T02350177  RH  070%=      5-min Rain = 0
KGO1 201116Z 19006KT 24/18 A301 RMK A01 T02360177  RH  070%=      5-min Rain = 0
KGO1 201117Z 19006KT 24/18 A301 RMK A01 T02360177  RH  069%=      5-min Rain = 0
KGO1 201118Z 19006KT 24/18 A301 RMK A01 T02360177  RH  069%=      5-min Rain = 0
KGO1 201119Z 20006KT 24/18 A301 RMK A01 T02360177  RH  069%=      5-min Rain = 0
KGO1 201120Z 20006KT 24/18 A301 RMK A01 T02360176  RH  069%=      5-min Rain = 0
KGO1 201121Z 19006KT 24/18 A301 RMK A01 T02370177  RH  069%=      5-min Rain = 0
KGO1 201122Z 19006KT 24/18 A301 RMK A01 T02370176  RH  069%=      5-min Rain = 0
KGO1 201123Z 19006KT 24/18 A301 RMK A01 T02370176  RH  069%=      5-min Rain = 0
KGO1 201124Z 19006KT 24/18 A301 RMK A01 T02370177  RH  069%=      5-min Rain = 0
KGO1 201125Z 19006KT 24/18 A301 RMK A01 T02380177  RH  069%=      5-min Rain = 0
KGO1 201126Z 19006KT 24/18 A301 RMK A01 T02370177  RH  069%=      5-min Rain = 0
KGO1 201127Z 19006KT 24/18 A301 RMK A01 T02380177  RH  069%=      5-min Rain = 0
KGO1 201128Z 19006KT 24/18 A301 RMK A01 T02370177  RH  069%=      5-min Rain = 0
KGO1 201129Z 19006KT 24/18 A301 RMK A01 T02380177  RH  069%=      5-min Rain = 0
KGO1 201130Z 20006KT 24/18 A301 RMK A01 T02380177  RH  069%=      5-min Rain = 0
KGO1 201131Z 20006KT 24/18 A301 RMK A01 T02380177  RH  069%=      5-min Rain = 0
KGO1 201132Z 19006KT 24/18 A301 RMK A01 T02380177  RH  069%=      5-min Rain = 0
KGO1 201133Z 19006KT 24/18 A301 RMK A01 T02380177  RH  069%=      5-min Rain = 0
KGO1 201134Z 19006KT 24/18 A301 RMK A01 T02380177  RH  069%=      5-min Rain = 0
KGO1 201135Z 19006KT 24/18 A301 RMK A01 T02380177  RH  069%=      5-min Rain = 0
KGO1 201136Z 19006KT 24/18 A301 RMK A01 T02380176  RH  068%=      5-min Rain = 0
KGO1 201137Z 18006KT 24/18 A301 RMK A01 T02380176  RH  068%=      5-min Rain = 0
KGO1 201138Z 18006KT 24/18 A301 RMK A01 T02380177  RH  069%=      5-min Rain = 0
KGO1 201139Z 18006KT 24/18 A301 RMK A01 T02380177  RH  069%=      5-min Rain = 0
KGO1 201140Z 18006KT 24/18 A301 RMK A01 T02370177  RH  069%=      5-min Rain = 0
KGO1 201141Z 18006KT 24/18 A301 RMK A01 T02370177  RH  069%=      5-min Rain = 0
KGO1 201142Z 18006KT 24/18 A301 RMK A01 T02370176  RH  069%=      5-min Rain = 0
KGO1 201143Z 18006KT 24/18 A301 RMK A01 T02370176  RH  069%=      5-min Rain = 0
KGO1 201144Z 18006KT 24/18 A301 RMK A01 T02370177  RH  069%=      5-min Rain = 0
KGO1 201145Z 18006KT 24/18 A301 RMK A01 T02370177  RH  069%=      5-min Rain = 0
KGO1 201146Z 18006KT 24/18 A301 RMK A01 T02370177  RH  069%=      5-min Rain = 0
KGO1 201147Z 18006KT 24/18 A301 RMK A01 T02370177  RH  069%=      5-min Rain = 0
KGO1 201148Z 18006KT 24/18 A301 RMK A01 T02370177  RH  069%=      5-min Rain = 0
KGO1 201149Z 18006KT 24/18 A301 RMK A01 T02370177  RH  069%=      5-min Rain = 0
KGO1 201150Z 18006KT 24/18 A301 RMK A01 T02370177  RH  069%=      5-min Rain = 0
KGO1 201151Z 17006KT 24/18 A301 RMK A01 T02370177  RH  069%=      5-min Rain = 0
KGO1 201152Z 17006KT 24/18 A301 RMK A01 T02360177  RH  069%=      5-min Rain = 0
KGO1 201153Z 17007KT 24/18 A301 RMK A01 T02360177  RH  069%=      5-min Rain = 0
KGO1 201154Z 17007KT 24/18 A301 RMK A01 T02360177  RH  069%=      5-min Rain = 0
KGO1 201155Z 17007KT 24/18 A301 RMK A01 T02360177  RH  069%=      5-min Rain = 0
KGO1 201156Z 17007KT 24/18 A301 RMK A01 T02360177  RH  069%=      5-min Rain = 0
KGO1 201157Z 18007KT 24/18 A301 RMK A01 T02360176  RH  069%=      5-min Rain = 0
KGO1 201158Z 18007KT 24/18 A301 RMK A01 T02370177  RH  069%=      5-min Rain = 0
KGO1 201159Z 18007KT 24/18 A301 RMK A01 T02370176  RH  069%=      5-min Rain = 0
KGO1 201200Z 18007KT 24/18 A301 RMK A01 T02380176  RH  069%=      5-min Rain = 0
KGO1 201201Z 18006KT 24/18 A301 RMK A01 T02380176  RH  068%=      5-min Rain = 0
KGO1 201202Z 18006KT 24/18 A301 RMK A01 T02390176  RH  068%=      5-min Rain = 0
KGO1 201203Z 18006KT 24/18 A301 RMK A01 T02390176  RH  067%=      5-min Rain = 0
KGO1 201204Z 18006KT 24/18 A301 RMK A01 T02400176  RH  067%=      5-min Rain = 0
KGO1 201205Z 18007KT 24/18 A301 RMK A01 T02400175  RH  067%=      5-min Rain = 0
KGO1 201206Z 18006KT 24/18 A301 RMK A01 T02400175  RH  067%=      5-min Rain = 0
KGO1 201207Z 18006KT 24/18 A301 RMK A01 T02400175  RH  067%=      5-min Rain = 0
KGO1 201208Z 18006KT 24/18 A301 RMK A01 T02400175  RH  067%=      5-min Rain = 0
KGO1 201209Z 18006KT 24/18 A301 RMK A01 T02400175  RH  067%=      5-min Rain = 0
KGO1 201210Z 19006KT 24/18 A301 RMK A01 T02400176  RH  067%=      5-min Rain = 0
KGO1 201211Z 18006KT 24/18 A301 RMK A01 T02400176  RH  068%=      5-min Rain = 0
KGO1 201212Z 18006KT 24/18 A301 RMK A01 T02390176  RH  068%=      5-min Rain = 0
KGO1 201213Z 18006KT 24/18 A301 RMK A01 T02390176  RH  068%=      5-min Rain = 0
KGO1 201214Z 18006KT 24/18 A301 RMK A01 T02390176  RH  068%=      5-min Rain = 0
KGO1 201215Z 18006KT 24/18 A301 RMK A01 T02390176  RH  068%=      5-min Rain = 0
KGO1 201216Z 18005KT 24/18 A301 RMK A01 T02390177  RH  068%=      5-min Rain = 0
KGO1 201217Z 19005KT 24/18 A3011 RMK A01 T02380177  RH  068%=      5-min Rain = 0
KGO1 201218Z 19005KT 24/18 A3011 RMK A01 T02380177  RH  068%=      5-min Rain = 0
KGO1 201219Z 19006KT 24/18 A3011 RMK A01 T02380177  RH  069%=      5-min Rain = 0
KGO1 201220Z 19006KT 24/18 A3011 RMK A01 T02380177  RH  069%=      5-min Rain = 0
KGO1 201221Z 19006KT 24/18 A3011 RMK A01 T02380177  RH  069%=      5-min Rain = 0
KGO1 201222Z 19006KT 24/18 A3011 RMK A01 T02380176  RH  068%=      5-min Rain = 0
KGO1 201223Z 19006KT 24/18 A3011 RMK A01 T02380177  RH  068%=      5-min Rain = 0
KGO1 201224Z 19005KT 24/18 A3011 RMK A01 T02390177  RH  068%=      5-min Rain = 0
KGO1 201225Z 19006KT 24/18 A3011 RMK A01 T02390177  RH  068%=      5-min Rain = 0
KGO1 201226Z 19006KT 24/18 A3011 RMK A01 T02390177  RH  068%=      5-min Rain = 0
KGO1 201227Z 18006KT 24/18 A3011 RMK A01 T02390177  RH  068%=      5-min Rain = 0
KGO1 201228Z 18006KT 24/18 A3011 RMK A01 T02390178  RH  069%=      5-min Rain = 0
KGO1 201229Z 18006KT 24/18 A3011 RMK A01 T02390178  RH  068%=      5-min Rain = 0
KGO1 201230Z 18006KT 24/18 A3011 RMK A01 T02390177  RH  068%=      5-min Rain = 0
KGO1 201231Z 18006KT 24/18 A3011 RMK A01 T02390177  RH  068%=      5-min Rain = 0
KGO1 201232Z 18006KT 24/18 A3011 RMK A01 T02390177  RH  068%=      5-min Rain = 0
KGO1 201233Z 18006KT 24/18 A3011 RMK A01 T02400177  RH  068%=      5-min Rain = 0
KGO1 201234Z 18006KT 24/18 A3011 RMK A01 T02400178  RH  068%=      5-min Rain = 0
KGO1 201235Z 18006KT 24/18 A3011 RMK A01 T02400177  RH  068%=      5-min Rain = 0
KGO1 201236Z 18006KT 24/18 A3011 RMK A01 T02400177  RH  068%=      5-min Rain = 0
KGO1 201237Z 18007KT 24/18 A3011 RMK A01 T02400177  RH  068%=      5-min Rain = 0
KGO1 201238Z 18007KT 24/18 A3011 RMK A01 T02410177  RH  068%=      5-min Rain = 0
KGO1 201239Z 18007KT 24/18 A3011 RMK A01 T02410177  RH  067%=      5-min Rain = 0
KGO1 201240Z 18007KT 24/18 A3011 RMK A01 T02420177  RH  067%=      5-min Rain = 0
KGO1 201241Z 19006KT 24/18 A3011 RMK A01 T02420177  RH  067%=      5-min Rain = 0
KGO1 201242Z 19006KT 24/18 A3011 RMK A01 T02430177  RH  067%=      5-min Rain = 0
KGO1 201243Z 19006KT 24/18 A3011 RMK A01 T02430178  RH  067%=      5-min Rain = 0
KGO1 201244Z 19007KT 24/18 A3011 RMK A01 T02430177  RH  066%=      5-min Rain = 0
KGO1 201245Z 19006KT 24/18 A3011 RMK A01 T02440177  RH  066%=      5-min Rain = 0
KGO1 201246Z 19007KT 25/18 A3011 RMK A01 T02450177  RH  066%=      5-min Rain = 0
KGO1 201247Z 19007KT 25/18 A3011 RMK A01 T02460177  RH  066%=      5-min Rain = 0
KGO1 201248Z 19007KT 25/18 A3011 RMK A01 T02470176  RH  065%=      5-min Rain = 0
KGO1 201249Z 19007KT 25/18 A3011 RMK A01 T02490177  RH  064%=      5-min Rain = 0
KGO1 201250Z 19007KT 25/18 A3011 RMK A01 T02500176  RH  064%=      5-min Rain = 0
KGO1 201251Z 19007KT 25/18 A3011 RMK A01 T02510176  RH  063%=      5-min Rain = 0
KGO1 201252Z 19007KT 25/18 A3011 RMK A01 T02520177  RH  063%=      5-min Rain = 0
KGO1 201253Z 19007KT 25/18 A3011 RMK A01 T02540176  RH  062%=      5-min Rain = 0
KGO1 201254Z 19007KT 26/17 A3011 RMK A01 T02550174  RH  061%=      5-min Rain = 0
KGO1 201255Z 19007KT 26/17 A3011 RMK A01 T02560174  RH  060%=      5-min Rain = 0
KGO1 201256Z 20007KT 26/17 A3011 RMK A01 T02580174  RH  060%=      5-min Rain = 0
KGO1 201257Z 20007KT 26/17 A3011 RMK A01 T02580173  RH  059%=      5-min Rain = 0
KGO1 201258Z 20006KT 26/17 A3011 RMK A01 T02600174  RH  059%=      5-min Rain = 0
KGO1 201259Z 20007KT 26/17 A3011 RMK A01 T02600172  RH  058%=      5-min Rain = 0
KGO1 201300Z 20006KT 26/17 A3011 RMK A01 T02620172  RH  058%=      5-min Rain = 0
KGO1 201301Z 20007KT 26/17 A3011 RMK A01 T02620171  RH  057%=      5-min Rain = 0
KGO1 201302Z 20007KT 26/17 A3011 RMK A01 T02630170  RH  057%=      5-min Rain = 0
KGO1 201303Z 20008KT 26/17 A3011 RMK A01 T02630170  RH  057%=      5-min Rain = 0
KGO1 201304Z 20007KT 26/17 A3011 RMK A01 T02630170  RH  057%=      5-min Rain = 0
KGO1 201305Z 19007KT 26/17 A3011 RMK A01 T02630170  RH  057%=      5-min Rain = 0
KGO1 201306Z 19007KT 26/17 A3012 RMK A01 T02630169  RH  056%=      5-min Rain = 0
KGO1 201307Z 19007KT 26/17 A3012 RMK A01 T02630169  RH  056%=      5-min Rain = 0
KGO1 201308Z 19007KT 26/17 A3012 RMK A01 T02630169  RH  056%=      5-min Rain = 0
KGO1 201309Z 19007KT 26/17 A3012 RMK A01 T02640170  RH  056%=      5-min Rain = 0
KGO1 201310Z 20008KT 26/17 A3012 RMK A01 T02640168  RH  055%=      5-min Rain = 0
KGO1 201311Z 19007KT 27/17 A3012 RMK A01 T02650167  RH  055%=      5-min Rain = 0
KGO1 201312Z 19007KT 27/17 A3012 RMK A01 T02650168  RH  055%=      5-min Rain = 0
KGO1 201313Z 19007KT 27/17 A3012 RMK A01 T02660168  RH  055%=      5-min Rain = 0
KGO1 201314Z 19007KT 27/17 A3012 RMK A01 T02660167  RH  055%=      5-min Rain = 0
KGO1 201315Z 19005KT 27/17 A3012 RMK A01 T02660168  RH  055%=      5-min Rain = 0
KGO1 201316Z 18006KT 27/17 A3012 RMK A01 T02660171  RH  056%=      5-min Rain = 0
KGO1 201317Z 18006KT 27/17 A3012 RMK A01 T02660172  RH  056%=      5-min Rain = 0
KGO1 201318Z 18005KT 27/17 A3012 RMK A01 T02650174  RH  057%=      5-min Rain = 0
KGO1 201319Z 17005KT 27/17 A3012 RMK A01 T02650174  RH  058%=      5-min Rain = 0
KGO1 201320Z 17005KT 26/18 A3012 RMK A01 T02640175  RH  058%=      5-min Rain = 0
KGO1 201321Z 17005KT 26/18 A3012 RMK A01 T02640176  RH  058%=      5-min Rain = 0
KGO1 201322Z 17005KT 26/18 A3012 RMK A01 T02640176  RH  059%=      5-min Rain = 0
KGO1 201323Z 17005KT 26/18 A3012 RMK A01 T02630175  RH  058%=      5-min Rain = 0
KGO1 201324Z 17005KT 26/18 A3012 RMK A01 T02630175  RH  058%=      5-min Rain = 0
KGO1 201325Z 17004KT 26/18 A3013 RMK A01 T02620175  RH  058%=      5-min Rain = 0
KGO1 201326Z 17004KT 26/17 A3013 RMK A01 T02630174  RH  058%=      5-min Rain = 0
KGO1 201327Z 17005KT 26/17 A3013 RMK A01 T02630174  RH  058%=      5-min Rain = 0
KGO1 201328Z 17005KT 26/17 A3013 RMK A01 T02630173  RH  058%=      5-min Rain = 0
KGO1 201329Z 18004KT 26/17 A3013 RMK A01 T02630173  RH  058%=      5-min Rain = 0
KGO1 201330Z 17004KT 26/17 A3013 RMK A01 T02630173  RH  058%=      5-min Rain = 0
KGO1 201331Z 17005KT 26/17 A3013 RMK A01 T02630174  RH  058%=      5-min Rain = 0
KGO1 201332Z 18005KT 26/17 A3013 RMK A01 T02630172  RH  057%=      5-min Rain = 0
KGO1 201333Z 17005KT 26/17 A3013 RMK A01 T02640173  RH  057%=      5-min Rain = 0
KGO1 201334Z 17005KT 27/18 A3013 RMK A01 T02650175  RH  058%=      5-min Rain = 0
KGO1 201335Z 17005KT 27/18 A3013 RMK A01 T02670175  RH  057%=      5-min Rain = 0
KGO1 201336Z 18005KT 27/18 A3013 RMK A01 T02690176  RH  057%=      5-min Rain = 0
KGO1 201337Z 18005KT 27/18 A3013 RMK A01 T02690175  RH  056%=      5-min Rain = 0
KGO1 201338Z 18005KT 27/18 A3013 RMK A01 T02690176  RH  056%=      5-min Rain = 0
KGO1 201339Z 18005KT 27/18 A3013 RMK A01 T02690176  RH  056%=      5-min Rain = 0
KGO1 201340Z 18005KT 27/18 A3013 RMK A01 T02690175  RH  056%=      5-min Rain = 0
KGO1 201341Z 18005KT 27/18 A3013 RMK A01 T02690175  RH  057%=      5-min Rain = 0
KGO1 201342Z 18005KT 27/18 A3013 RMK A01 T02690176  RH  057%=      5-min Rain = 0
KGO1 201343Z 18005KT 27/18 A3013 RMK A01 T02680177  RH  057%=      5-min Rain = 0
KGO1 201344Z 18005KT 27/18 A3013 RMK A01 T02690178  RH  058%=      5-min Rain = 0
KGO1 201345Z 18005KT 27/18 A3013 RMK A01 T02690178  RH  057%=      5-min Rain = 0
KGO1 201346Z 18005KT 27/18 A3013 RMK A01 T02690178  RH  057%=      5-min Rain = 0
KGO1 201347Z 18005KT 27/18 A3013 RMK A01 T02690176  RH  057%=      5-min Rain = 0
KGO1 201348Z 17005KT 27/18 A3013 RMK A01 T02690177  RH  057%=      5-min Rain = 0
KGO1 201349Z 18005KT 27/18 A3013 RMK A01 T02690176  RH  057%=      5-min Rain = 0
KGO1 201350Z 18005KT 27/18 A3013 RMK A01 T02690177  RH  057%=      5-min Rain = 0
KGO1 201351Z 18005KT 27/18 A3013 RMK A01 T02700176  RH  056%=      5-min Rain = 0
KGO1 201352Z 18006KT 27/18 A3013 RMK A01 T02700175  RH  056%=      5-min Rain = 0
KGO1 201353Z 18006KT 27/18 A3013 RMK A01 T02710175  RH  056%=      5-min Rain = 0
KGO1 201354Z 17005KT 27/18 A3013 RMK A01 T02720176  RH  056%=      5-min Rain = 0
KGO1 201355Z 18005KT 27/18 A3013 RMK A01 T02730175  RH  055%=      5-min Rain = 0
KGO1 201356Z 18005KT 27/18 A3013 RMK A01 T02730176  RH  056%=      5-min Rain = 0
KGO1 201357Z 17004KT 27/18 A3013 RMK A01 T02740176  RH  055%=      5-min Rain = 0
KGO1 201358Z 17004KT 27/18 A3013 RMK A01 T02740175  RH  055%=      5-min Rain = 0
KGO1 201359Z 18004KT 27/18 A3013 RMK A01 T02740176  RH  055%=      5-min Rain = 0
KGO1 201400Z 18005KT 27/18 A3013 RMK A01 T02740176  RH  055%=      5-min Rain = 0
KGO1 201401Z 18005KT 28/18 A3013 RMK A01 T02750175  RH  055%=      5-min Rain = 0
KGO1 201402Z 17005KT 28/18 A3013 RMK A01 T02750176  RH  055%=      5-min Rain = 0
KGO1 201403Z 18004KT 28/18 A3013 RMK A01 T02750176  RH  055%=      5-min Rain = 0
KGO1 201404Z 19005KT 28/18 A3013 RMK A01 T02760175  RH  054%=      5-min Rain = 0
KGO1 201405Z 18005KT 28/18 A3013 RMK A01 T02780177  RH  054%=      5-min Rain = 0
KGO1 201406Z 19006KT 28/17 A3013 RMK A01 T02790174  RH  053%=      5-min Rain = 0
KGO1 201407Z 20006KT 28/18 A3013 RMK A01 T02800175  RH  053%=      5-min Rain = 0
KGO1 201408Z 20007KT 28/17 A3013 RMK A01 T02810174  RH  052%=      5-min Rain = 0
KGO1 201409Z 20006KT 28/18 A3013 RMK A01 T02820175  RH  052%=      5-min Rain = 0
KGO1 201410Z 21006KT 28/17 A3013 RMK A01 T02830172  RH  051%=      5-min Rain = 0
KGO1 201411Z 20006KT 28/17 A3013 RMK A01 T02840172  RH  051%=      5-min Rain = 0
KGO1 201412Z 21006KT 29/17 A3013 RMK A01 T02850171  RH  050%=      5-min Rain = 0
KGO1 201413Z 21005KT 29/17 A3013 RMK A01 T02870171  RH  050%=      5-min Rain = 0
KGO1 201414Z 22007KT 29/17 A3013 RMK A01 T02880170  RH  049%=      5-min Rain = 0
KGO1 201415Z 21007KT 29/17 A3013 RMK A01 T02890171  RH  049%=      5-min Rain = 0
KGO1 201416Z 21007KT 29/17 A3013 RMK A01 T02900169  RH  048%=      5-min Rain = 0
KGO1 201417Z 21007KT 29/17 A3013 RMK A01 T02910169  RH  048%=      5-min Rain = 0
KGO1 201418Z 22006KT 29/17 A3013 RMK A01 T02920171  RH  048%=      5-min Rain = 0
KGO1 201419Z 21005KT 29/17 A3013 RMK A01 T02940171  RH  047%=      5-min Rain = 0
KGO1 201420Z 22006KT 30/17 A3013 RMK A01 T02960169  RH  046%=      5-min Rain = 0
KGO1 201421Z 22007KT 30/17 A3013 RMK A01 T02970168  RH  046%=      5-min Rain = 0
KGO1 201422Z 23008KT 30/17 A3013 RMK A01 T02970165  RH  045%=      5-min Rain = 0
KGO1 201423Z 22009KT 30/16 A3013 RMK A01 T02980164  RH  044%=      5-min Rain = 0
KGO1 201424Z 23009KT 30/16 A3013 RMK A01 T02980164  RH  044%=      5-min Rain = 0
KGO1 201425Z 21008KT 30/16 A3013 RMK A01 T02980164  RH  044%=      5-min Rain = 0
KGO1 201426Z 22008KT 30/17 A3013 RMK A01 T02990167  RH  045%=      5-min Rain = 0
KGO1 201427Z 21010KT 30/17 A3013 RMK A01 T03010165  RH  044%=      5-min Rain = 0
KGO1 201428Z 22011KT 30/17 A3013 RMK A01 T03030165  RH  044%=      5-min Rain = 0
KGO1 201429Z 22009KT 30/16 A3013 RMK A01 T03030162  RH  043%=      5-min Rain = 0
KGO1 201430Z 23007KT 30/17 A3013 RMK A01 T03020165  RH  044%=      5-min Rain = 0
KGO1 201431Z 22008KT 30/17 A3013 RMK A01 T03030165  RH  043%=      5-min Rain = 0
KGO1 201432Z 24010KT 30/16 A3013 RMK A01 T03040164  RH  043%=      5-min Rain = 0
KGO1 201433Z 23009KT 30/16 A3013 RMK A01 T03040163  RH  043%=      5-min Rain = 0
KGO1 201434Z 22010KT 30/17 A3013 RMK A01 T03040165  RH  043%=      5-min Rain = 0
KGO1 201435Z 22012KT 31/16 A3013 RMK A01 T03050162  RH  042%=      5-min Rain = 0
KGO1 201436Z 22012KT 31/16 A3013 RMK A01 T03050161  RH  042%=      5-min Rain = 0
KGO1 201437Z 22013KT 31/16 A3013 RMK A01 T03050160  RH  042%=      5-min Rain = 0
KGO1 201438Z 22010KT 30/16 A3013 RMK A01 T03040162  RH  042%=      5-min Rain = 0
KGO1 201439Z 23012KT 31/16 A3013 RMK A01 T03060161  RH  042%=      5-min Rain = 0
KGO1 201440Z 23014KT 31/16 A3013 RMK A01 T03070161  RH  041%=      5-min Rain = 0
KGO1 201441Z 22015KT 31/16 A3013 RMK A01 T03060160  RH  041%=      5-min Rain = 0
KGO1 201442Z 22014KT 31/16 A3013 RMK A01 T03060160  RH  041%=      5-min Rain = 0
KGO1 201443Z 23012KT 31/16 A3013 RMK A01 T03050162  RH  042%=      5-min Rain = 0
KGO1 201444Z 23012KT 31/16 A3013 RMK A01 T03070163  RH  042%=      5-min Rain = 0
KGO1 201445Z 24012KT 31/16 A3013 RMK A01 T03090162  RH  041%=      5-min Rain = 0
KGO1 201446Z 23011KT 31/16 A3013 RMK A01 T03090161  RH  041%=      5-min Rain = 0
KGO1 201447Z 23010KT 31/16 A3013 RMK A01 T03090162  RH  041%=      5-min Rain = 0
KGO1 201448Z 24010KT 31/16 A3013 RMK A01 T03090162  RH  041%=      5-min Rain = 0
KGO1 201449Z 23011KT 31/16 A3014 RMK A01 T03100163  RH  041%=      5-min Rain = 0
KGO1 201450Z 23010KT 31/17 A3014 RMK A01 T03110165  RH  041%=      5-min Rain = 0
KGO1 201451Z 24012KT 31/16 A3013 RMK A01 T03130164  RH  041%=      5-min Rain = 0
KGO1 201452Z 24014KT 31/16 A3014 RMK A01 T03140163  RH  040%=      5-min Rain = 0
KGO1 201453Z 23011KT 31/16 A3014 RMK A01 T03130163  RH  041%=      5-min Rain = 0
KGO1 201454Z 23010KT 31/17 A3014 RMK A01 T03130166  RH  041%=      5-min Rain = 0
KGO1 201455Z 23014KT 32/17 A3013 RMK A01 T03150166  RH  041%=      5-min Rain = 0
KGO1 201456Z 24013KT 32/17 A3014 RMK A01 T03170166  RH  040%=      5-min Rain = 0
KGO1 201457Z 23012KT 32/17 A3014 RMK A01 T03170165  RH  040%=      5-min Rain = 0
KGO1 201458Z 24013KT 32/17 A3014 RMK A01 T03180166  RH  040%=      5-min Rain = 0
KGO1 201459Z 24015KT 32/17 A3014 RMK A01 T03180165  RH  040%=      5-min Rain = 0
KGO1 201500Z 23015KT 32/16 A3013 RMK A01 T03160164  RH  040%=      5-min Rain = 0
KGO1 201501Z 24016KT 32/16 A3014 RMK A01 T03150164  RH  040%=      5-min Rain = 0
KGO1 201502Z 24015KT 31/16 A3014 RMK A01 T03140164  RH  040%=      5-min Rain = 0
KGO1 201503Z 24014KT 32/17 A3014 RMK A01 T03150165  RH  041%=      5-min Rain = 0
KGO1 201504Z 23016KT 32/17 A3014 RMK A01 T03170165  RH  040%=      5-min Rain = 0
KGO1 201505Z 23016KT 32/17 A3013 RMK A01 T03170165  RH  040%=      5-min Rain = 0
KGO1 201506Z 24016KT 32/17 A3013 RMK A01 T03170165  RH  040%=      5-min Rain = 0
KGO1 201507Z 23013KT 32/17 A3013 RMK A01 T03180166  RH  040%=      5-min Rain = 0
KGO1 201508Z 23015KT 32/17 A3013 RMK A01 T03210167  RH  040%=      5-min Rain = 0
KGO1 201509Z 23016KT 32/17 A3013 RMK A01 T03210166  RH  039%=      5-min Rain = 0
KGO1 201510Z 23016KT 32/17 A3013 RMK A01 T03210165  RH  039%=      5-min Rain = 0
KGO1 201511Z 24013KT 32/17 A3013 RMK A01 T03200166  RH  040%=      5-min Rain = 0
KGO1 201512Z 24015KT 32/17 A3013 RMK A01 T03220166  RH  039%=      5-min Rain = 0
KGO1 201513Z 24014KT 32/17 A3013 RMK A01 T03220166  RH  039%=      5-min Rain = 0
KGO1 201514Z 24015KT 32/17 A3013 RMK A01 T03210165  RH  039%=      5-min Rain = 0
KGO1 201515Z 23016KT 32/17 A3013 RMK A01 T03200166  RH  040%=      5-min Rain = 0
KGO1 201516Z 24013KT 32/16 A3013 RMK A01 T03200164  RH  039%=      5-min Rain = 0
KGO1 201517Z 25014KT 32/17 A3013 RMK A01 T03200167  RH  040%=      5-min Rain = 0
KGO1 201518Z 25011KT 32/17 A3013 RMK A01 T03210168  RH  040%=      5-min Rain = 0
KGO1 201519Z 25015KT 32/17 A3013 RMK A01 T03220167  RH  039%=      5-min Rain = 0
KGO1 201520Z 26016KT 32/17 A3013 RMK A01 T03220167  RH  039%=      5-min Rain = 0
KGO1 201521Z 25017KT 32/17 A3013 RMK A01 T03210166  RH  040%=      5-min Rain = 0
KGO1 201522Z 25014KT 32/17 A3013 RMK A01 T03190166  RH  040%=      5-min Rain = 0
KGO1 201523Z 26014KT 32/17 A3013 RMK A01 T03180166  RH  040%=      5-min Rain = 0
KGO1 201524Z 24015KT 32/17 A3013 RMK A01 T03180166  RH  040%=      5-min Rain = 0
KGO1 201525Z 25012KT 32/17 A3013 RMK A01 T03170166  RH  040%=      5-min Rain = 0
KGO1 201526Z 26013KT 32/17 A3013 RMK A01 T03190167  RH  040%=      5-min Rain = 0
KGO1 201527Z 25013KT 32/17 A3013 RMK A01 T03210165  RH  039%=      5-min Rain = 0
KGO1 201528Z 25014KT 32/17 A3013 RMK A01 T03220167  RH  039%=      5-min Rain = 0
KGO1 201529Z 25013KT 32/16 A3014 RMK A01 T03230164  RH  039%=      5-min Rain = 0
KGO1 201530Z 25015KT 32/17 A3014 RMK A01 T03230165  RH  039%=      5-min Rain = 0
KGO1 201531Z 24014KT 32/16 A3014 RMK A01 T03230164  RH  039%=      5-min Rain = 0
KGO1 201532Z 24016KT 32/16 A3014 RMK A01 T03230164  RH  038%=      5-min Rain = 0
KGO1 201533Z 25014KT 32/16 A3014 RMK A01 T03230164  RH  038%=      5-min Rain = 0
KGO1 201534Z 25016G21KT 32/17 A3014 RMK A01 T03240165  RH  039%=      5-min Rain = 0
KGO1 201535Z 25016KT 32/16 A3013 RMK A01 T03240164  RH  038%=      5-min Rain = 0
KGO1 201536Z 24016KT 33/16 A3014 RMK A01 T03250162  RH  038%=      5-min Rain = 0
KGO1 201537Z 24017KT 32/16 A3014 RMK A01 T03240162  RH  038%=      5-min Rain = 0
KGO1 201538Z 24017KT 32/16 A3014 RMK A01 T03230161  RH  038%=      5-min Rain = 0
KGO1 201539Z 24015KT 32/16 A3014 RMK A01 T03230162  RH  038%=      5-min Rain = 0
KGO1 201540Z 24014KT 32/17 A3014 RMK A01 T03240165  RH  039%=      5-min Rain = 0
KGO1 201541Z 25013KT 33/17 A3014 RMK A01 T03270166  RH  038%=      5-min Rain = 0
KGO1 201542Z 26015KT 33/16 A3014 RMK A01 T03280163  RH  037%=      5-min Rain = 0
KGO1 201543Z 25015KT 33/17 A3014 RMK A01 T03270165  RH  038%=      5-min Rain = 0
KGO1 201544Z 26017KT 33/16 A3014 RMK A01 T03270162  RH  037%=      5-min Rain = 0
KGO1 201545Z 26013KT 33/16 A3014 RMK A01 T03250164  RH  038%=      5-min Rain = 0
KGO1 201546Z 26013KT 33/17 A3014 RMK A01 T03260165  RH  038%=      5-min Rain = 0
KGO1 201547Z 24014KT 33/17 A3014 RMK A01 T03290165  RH  037%=      5-min Rain = 0
KGO1 201548Z 25011KT 33/17 A3014 RMK A01 T03300165  RH  037%=      5-min Rain = 0
KGO1 201549Z 26015KT 33/17 A3014 RMK A01 T03310167  RH  038%=      5-min Rain = 0
KGO1 201550Z 26015KT 33/17 A3014 RMK A01 T03320165  RH  037%=      5-min Rain = 0
KGO1 201551Z 25016G21KT 33/16 A3014 RMK A01 T03320164  RH  037%=      5-min Rain = 0
KGO1 201552Z 25017KT 33/16 A3014 RMK A01 T03300163  RH  037%=      5-min Rain = 0
KGO1 201553Z 25015KT 33/16 A3014 RMK A01 T03290164  RH  037%=      5-min Rain = 0
KGO1 201554Z 24016KT 33/16 A3014 RMK A01 T03290163  RH  037%=      5-min Rain = 0
KGO1 201555Z 25016KT 33/16 A3014 RMK A01 T03280160  RH  036%=      5-min Rain = 0
KGO1 201556Z 25014KT 33/16 A3014 RMK A01 T03280163  RH  037%=      5-min Rain = 0
KGO1 201557Z 25012KT 33/17 A3014 RMK A01 T03320166  RH  037%=      5-min Rain = 0
KGO1 201558Z 25016KT 34/16 A3014 RMK A01 T03350164  RH  036%=      5-min Rain = 0
KGO1 201559Z 25016KT 33/16 A3014 RMK A01 T03330164  RH  036%=      5-min Rain = 0
KGO1 201600Z 25017KT 33/16 A3014 RMK A01 T03320162  RH  036%=      5-min Rain = 0
KGO1 201601Z 25017KT 33/16 A3014 RMK A01 T03310161  RH  036%=      5-min Rain = 0
KGO1 201602Z 26017KT 33/16 A3014 RMK A01 T03300161  RH  036%=      5-min Rain = 0
KGO1 201603Z 24016KT 33/16 A3014 RMK A01 T03290161  RH  037%=      5-min Rain = 0
KGO1 201604Z 25014KT 33/16 A3014 RMK A01 T03300163  RH  037%=      5-min Rain = 0
KGO1 201605Z 25015KT 33/16 A3014 RMK A01 T03320163  RH  036%=      5-min Rain = 0
KGO1 201606Z 26015KT 33/17 A3014 RMK A01 T03320165  RH  037%=      5-min Rain = 0
KGO1 201607Z 25015KT 33/17 A3014 RMK A01 T03320165  RH  037%=      5-min Rain = 0
KGO1 201608Z 26013KT 33/17 A3014 RMK A01 T03320165  RH  037%=      5-min Rain = 0
KGO1 201609Z 25013KT 33/17 A3014 RMK A01 T03340167  RH  037%=      5-min Rain = 0
KGO1 201610Z 25013KT 34/17 A3014 RMK A01 T03360165  RH  036%=      5-min Rain = 0
KGO1 201611Z 25014KT 34/17 A3014 RMK A01 T03370165  RH  036%=      5-min Rain = 0
KGO1 201612Z 25014KT 34/16 A3014 RMK A01 T03360164  RH  036%=      5-min Rain = 0
KGO1 201613Z 26013KT 34/17 A3014 RMK A01 T03350165  RH  036%=      5-min Rain = 0
KGO1 201614Z 26012G17KT 34/17 A3014 RMK A01 T03350166  RH  036%=      5-min Rain = 0
KGO1 201615Z 27012KT 34/17 A3014 RMK A01 T03360166  RH  036%=      5-min Rain = 0
KGO1 201616Z 27012KT 34/17 A3014 RMK A01 T03360167  RH  037%=      5-min Rain = 0
KGO1 201617Z 26014KT 34/17 A3014 RMK A01 T03360167  RH  037%=      5-min Rain = 0
KGO1 201618Z 26014KT 34/17 A3014 RMK A01 T03370166  RH  036%=      5-min Rain = 0
KGO1 201619Z 26012KT 34/17 A3014 RMK A01 T03370166  RH  036%=      5-min Rain = 0
KGO1 201620Z 27013KT 34/17 A3014 RMK A01 T03370168  RH  036%=      5-min Rain = 0
KGO1 201621Z 27014KT 34/17 A3014 RMK A01 T03370166  RH  036%=      5-min Rain = 0
KGO1 201622Z 26015KT 34/17 A3014 RMK A01 T03370166  RH  036%=      5-min Rain = 0
KGO1 201623Z 26015KT 34/17 A3014 RMK A01 T03360167  RH  036%=      5-min Rain = 0
KGO1 201624Z 26014KT 34/17 A3014 RMK A01 T03360167  RH  036%=      5-min Rain = 0
KGO1 201625Z 26014KT 34/17 A3014 RMK A01 T03370165  RH  036%=      5-min Rain = 0
KGO1 201626Z 27013KT 34/17 A3014 RMK A01 T03370166  RH  036%=      5-min Rain = 0
KGO1 201627Z 25013KT 34/17 A3014 RMK A01 T03370166  RH  036%=      5-min Rain = 0
KGO1 201628Z 25012KT 34/17 A3014 RMK A01 T03370165  RH  036%=      5-min Rain = 0
KGO1 201629Z 25016KT 34/17 A3014 RMK A01 T03390165  RH  036%=      5-min Rain = 0
KGO1 201630Z 24013KT 34/17 A3014 RMK A01 T03400165  RH  035%=      5-min Rain = 0
KGO1 201631Z 24013G18KT 34/17 A3014 RMK A01 T03390165  RH  035%=      5-min Rain = 0
KGO1 201632Z 25014KT 34/17 A3014 RMK A01 T03400165  RH  035%=      5-min Rain = 0
KGO1 201633Z 26016KT 34/17 A3014 RMK A01 T03410165  RH  035%=      5-min Rain = 0
KGO1 201634Z 25010KT 34/17 A3014 RMK A01 T03380165  RH  036%=      5-min Rain = 0
KGO1 201635Z 25013KT 34/17 A3014 RMK A01 T03390166  RH  036%=      5-min Rain = 0
KGO1 201636Z 26013KT 34/17 A3014 RMK A01 T03390166  RH  035%=      5-min Rain = 0
KGO1 201637Z 26013KT 34/17 A3014 RMK A01 T03390166  RH  036%=      5-min Rain = 0
KGO1 201638Z 25014KT 34/17 A3013 RMK A01 T03390167  RH  036%=      5-min Rain = 0
KGO1 201639Z 26014KT 34/17 A3014 RMK A01 T03430165  RH  035%=      5-min Rain = 0
KGO1 201640Z 26012KT 35/17 A3014 RMK A01 T03450167  RH  035%=      5-min Rain = 0
KGO1 201641Z 27016KT 35/16 A3014 RMK A01 T03460164  RH  034%=      5-min Rain = 0
KGO1 201642Z 26015KT 34/16 A3014 RMK A01 T03430164  RH  034%=      5-min Rain = 0
KGO1 201643Z 26012KT 34/16 A3014 RMK A01 T03410163  RH  035%=      5-min Rain = 0
KGO1 201644Z 26013G18KT 34/16 A3013 RMK A01 T03400164  RH  035%=      5-min Rain = 0
KGO1 201645Z 25015KT 34/17 A3014 RMK A01 T03420165  RH  035%=      5-min Rain = 0
KGO1 201646Z 24015KT 35/16 A3014 RMK A01 T03450162  RH  034%=      5-min Rain = 0
KGO1 201647Z 24015KT 34/16 A3014 RMK A01 T03440163  RH  034%=      5-min Rain = 0
KGO1 201648Z 25012KT 34/16 A3014 RMK A01 T03430163  RH  034%=      5-min Rain = 0
KGO1 201649Z 24010KT 34/16 A3014 RMK A01 T03430163  RH  034%=      5-min Rain = 0
KGO1 201650Z 25014KT 35/17 A3014 RMK A01 T03460167  RH  035%=      5-min Rain = 0
KGO1 201651Z 25012KT 35/16 A3014 RMK A01 T03470164  RH  034%=      5-min Rain = 0
KGO1 201652Z 26012KT 35/17 A3014 RMK A01 T03460166  RH  034%=      5-min Rain = 0
KGO1 201653Z 25012KT 35/16 A3014 RMK A01 T03450164  RH  034%=      5-min Rain = 0
KGO1 201654Z 26014KT 34/17 A3014 RMK A01 T03440166  RH  035%=      5-min Rain = 0
KGO1 201655Z 25012KT 34/17 A3014 RMK A01 T03440165  RH  034%=      5-min Rain = 0
KGO1 201656Z 24013KT 34/16 A3014 RMK A01 T03430163  RH  034%=      5-min Rain = 0
KGO1 201657Z 25013KT 34/16 A3014 RMK A01 T03410162  RH  034%=      5-min Rain = 0
KGO1 201658Z 24009KT 34/16 A3014 RMK A01 T03400161  RH  034%=      5-min Rain = 0
KGO1 201659Z 26011KT 34/16 A3014 RMK A01 T03400163  RH  035%=      5-min Rain = 0
KGO1 201700Z 27008KT 34/16 A3014 RMK A01 T03410163  RH  034%=      5-min Rain = 0
KGO1 201701Z 26009KT 34/17 A3014 RMK A01 T03430165  RH  035%=      5-min Rain = 0
KGO1 201702Z 26010KT 35/17 A3014 RMK A01 T03460168  RH  035%=      5-min Rain = 0
KGO1 201703Z 26010KT 35/17 A3014 RMK A01 T03490165  RH  034%=      5-min Rain = 0
KGO1 201704Z 27010KT 35/17 A3013 RMK A01 T03490165  RH  033%=      5-min Rain = 0
KGO1 201705Z 26009KT 35/17 A3013 RMK A01 T03460166  RH  034%=      5-min Rain = 0
KGO1 201706Z 24012KT 35/17 A3013 RMK A01 T03470166  RH  034%=      5-min Rain = 0
KGO1 201707Z 24012KT 35/16 A3013 RMK A01 T03460163  RH  034%=      5-min Rain = 0
KGO1 201708Z 24010KT 34/16 A3013 RMK A01 T03440163  RH  034%=      5-min Rain = 0
KGO1 201709Z 24010KT 34/16 A3013 RMK A01 T03420163  RH  034%=      5-min Rain = 0
KGO1 201710Z 23006KT 34/17 A3013 RMK A01 T03440166  RH  035%=      5-min Rain = 0
KGO1 201711Z 24010KT 35/17 A3013 RMK A01 T03490168  RH  034%=      5-min Rain = 0
KGO1 201712Z 25013KT 35/17 A3013 RMK A01 T03520167  RH  033%=      5-min Rain = 0
KGO1 201713Z 25013KT 35/16 A3013 RMK A01 T03520164  RH  033%=      5-min Rain = 0
KGO1 201714Z 24010KT 35/16 A3013 RMK A01 T03490163  RH  033%=      5-min Rain = 0
KGO1 201715Z 23009KT 35/16 A3013 RMK A01 T03480164  RH  034%=      5-min Rain = 0
KGO1 201716Z 26012KT 35/17 A3013 RMK A01 T03500168  RH  034%=      5-min Rain = 0
KGO1 201717Z 26010KT 35/17 A3013 RMK A01 T03510165  RH  033%=      5-min Rain = 0
KGO1 201718Z 27011KT 35/17 A3013 RMK A01 T03490166  RH  034%=      5-min Rain = 0
KGO1 201719Z 26011KT 35/17 A3013 RMK A01 T03480166  RH  034%=      5-min Rain = 0
KGO1 201720Z 26012KT 35/16 A3013 RMK A01 T03490163  RH  033%=      5-min Rain = 0
KGO1 201721Z 25012KT 35/16 A3013 RMK A01 T03460160  RH  033%=      5-min Rain = 0
KGO1 201722Z 24014KT 34/16 A3013 RMK A01 T03440161  RH  034%=      5-min Rain = 0
KGO1 201723Z 26010KT 34/16 A3013 RMK A01 T03440161  RH  034%=      5-min Rain = 0
KGO1 201724Z 26010KT 34/16 A3013 RMK A01 T03440162  RH  034%=      5-min Rain = 0
KGO1 201725Z 24011KT 35/16 A3013 RMK A01 T03470161  RH  033%=      5-min Rain = 0
KGO1 201726Z 24013KT 35/16 A3013 RMK A01 T03480159  RH  032%=      5-min Rain = 0
KGO1 201727Z 22011KT 35/16 A3013 RMK A01 T03490161  RH  033%=      5-min Rain = 0
KGO1 201728Z 22008KT 35/16 A3013 RMK A01 T03510160  RH  032%=      5-min Rain = 0
KGO1 201729Z 21011KT 35/16 A3013 RMK A01 T03500162  RH  033%=      5-min Rain = 0
KGO1 201730Z 23008KT 35/16 A3013 RMK A01 T03530164  RH  033%=      5-min Rain = 0
KGO1 201731Z 24009KT 36/16 A3013 RMK A01 T03580161  RH  031%=      5-min Rain = 0
KGO1 201732Z 24007KT 36/16 A3013 RMK A01 T03580162  RH  031%=      5-min Rain = 0
KGO1 201733Z 23013KT 36/16 A3013 RMK A01 T03570161  RH  031%=      5-min Rain = 0
KGO1 201734Z 23012KT 36/16 A3013 RMK A01 T03590160  RH  031%=      5-min Rain = 0
KGO1 201735Z 24012KT 36/16 A3013 RMK A01 T03610159  RH  030%=      5-min Rain = 0
KGO1 201736Z 24012KT 36/16 A3013 RMK A01 T03620161  RH  030%=      5-min Rain = 0
KGO1 201737Z 24009KT 36/16 A3013 RMK A01 T03600161  RH  031%=      5-min Rain = 0
KGO1 201738Z 24008KT 36/16 A3013 RMK A01 T03620163  RH  031%=      5-min Rain = 0
KGO1 201739Z 23011KT 36/16 A3013 RMK A01 T03630162  RH  030%=      5-min Rain = 0
KGO1 201740Z 24011KT 36/16 A3013 RMK A01 T03570159  RH  031%=      5-min Rain = 0
KGO1 201741Z 24009G14KT 35/16 A3013 RMK A01 T03510158  RH  032%=      5-min Rain = 0
KGO1 201742Z 25011KT 35/16 A3013 RMK A01 T03490158  RH  032%=      5-min Rain = 0
KGO1 201743Z 25009KT 35/16 A3013 RMK A01 T03460157  RH  032%=      5-min Rain = 0
KGO1 201744Z 23009KT 35/16 A3013 RMK A01 T03450160  RH  033%=      5-min Rain = 0
KGO1 201745Z 23008KT 35/16 A3013 RMK A01 T03470158  RH  032%=      5-min Rain = 0
KGO1 201746Z 23006KT 34/16 A3013 RMK A01 T03440156  RH  033%=      5-min Rain = 0
KGO1 201747Z 21007KT 34/16 A3013 RMK A01 T03430159  RH  033%=      5-min Rain = 0
KGO1 201748Z 20002KT 34/16 A3013 RMK A01 T03430156  RH  033%=      5-min Rain = 0
KGO1 201749Z 23004KT 34/16 A3013 RMK A01 T03420158  RH  033%=      5-min Rain = 0
KGO1 201750Z 25007KT 34/16 A3012 RMK A01 T03420157  RH  033%=      5-min Rain = 0
KGO1 201751Z 23005KT 34/16 A3012 RMK A01 T03420157  RH  033%=      5-min Rain = 0
KGO1 201752Z 22008KT 34/16 A3012 RMK A01 T03430159  RH  033%=      5-min Rain = 0
KGO1 201753Z 23008KT 35/16 A3012 RMK A01 T03450159  RH  033%=      5-min Rain = 0
KGO1 201754Z 25007KT 35/16 A3012 RMK A01 T03460158  RH  033%=      5-min Rain = 0
KGO1 201755Z 25007KT 35/16 A3012 RMK A01 T03460160  RH  033%=      5-min Rain = 0
KGO1 201756Z 24006KT 35/16 A3012 RMK A01 T03470160  RH  033%=      5-min Rain = 0
KGO1 201757Z 25008KT 35/16 A3012 RMK A01 T03490161  RH  033%=      5-min Rain = 0
KGO1 201758Z 22010KT 35/16 A3012 RMK A01 T03500160  RH  032%=      5-min Rain = 0
KGO1 201759Z 22010KT 35/16 A3012 RMK A01 T03510158  RH  032%=      5-min Rain = 0
KGO1 201800Z 24010KT 35/16 A3012 RMK A01 T03530162  RH  032%=      5-min Rain = 0
KGO1 201801Z 26007KT 36/16 A3012 RMK A01 T03550162  RH  032%=      5-min Rain = 0
KGO1 201802Z 25008KT 36/16 A3012 RMK A01 T03560163  RH  032%=      5-min Rain = 0
KGO1 201803Z 23004KT 36/16 A3012 RMK A01 T03550160  RH  031%=      5-min Rain = 0
KGO1 201804Z 25008KT 35/16 A3012 RMK A01 T03540162  RH  032%=      5-min Rain = 0
KGO1 201805Z 23006KT 35/16 A3012 RMK A01 T03540158  RH  031%=      5-min Rain = 0
KGO1 201806Z 21004KT 35/16 A3012 RMK A01 T03510157  RH  032%=      5-min Rain = 0
KGO1 201807Z 24001KT 35/16 A3012 RMK A01 T03490158  RH  032%=      5-min Rain = 0
KGO1 201808Z 26006KT 35/16 A3012 RMK A01 T03490159  RH  032%=      5-min Rain = 0
KGO1 201809Z 26007KT 35/16 A3012 RMK A01 T03510163  RH  033%=      5-min Rain = 0
KGO1 201810Z 25008KT 35/16 A3012 RMK A01 T03530160  RH  032%=      5-min Rain = 0
KGO1 201811Z 25009KT 35/16 A3012 RMK A01 T03530164  RH  033%=      5-min Rain = 0
KGO1 201812Z 25005KT 36/16 A3012 RMK A01 T03550164  RH  032%=      5-min Rain = 0
KGO1 201813Z 24004KT 36/16 A3012 RMK A01 T03560163  RH  032%=      5-min Rain = 0
KGO1 201814Z 23004KT 36/16 A3012 RMK A01 T03570164  RH  032%=      5-min Rain = 0
KGO1 201815Z 23008KT 36/16 A3012 RMK A01 T03580163  RH  031%=      5-min Rain = 0
KGO1 201816Z 24008KT 36/16 A3012 RMK A01 T03580163  RH  031%=      5-min Rain = 0
KGO1 201817Z 25010KT 36/16 A3012 RMK A01 T03560160  RH  031%=      5-min Rain = 0
KGO1 201818Z 24008KT 36/16 A3012 RMK A01 T03550160  RH  031%=      5-min Rain = 0
KGO1 201819Z 22008G13KT 36/16 A3012 RMK A01 T03560160  RH  031%=      5-min Rain = 0
KGO1 201820Z 22010G15KT 36/15 A3012 RMK A01 T03590152  RH  029%=      5-min Rain = 0
KGO1 201821Z 23009KT 36/16 A3012 RMK A01 T03620155  RH  029%=      5-min Rain = 0
KGO1 201822Z 20009KT 36/14 A3012 RMK A01 T03620144  RH  027%=      5-min Rain = 0
KGO1 201823Z 18013KT 36/14 A3012 RMK A01 T03620143  RH  027%=      5-min Rain = 0
KGO1 201824Z 18009KT 36/14 A3012 RMK A01 T03640143  RH  027%=      5-min Rain = 0
KGO1 201825Z 19008KT 37/15 A3012 RMK A01 T03650145  RH  027%=      5-min Rain = 0
KGO1 201826Z 18005KT 37/14 A3011 RMK A01 T03660143  RH  027%=      5-min Rain = 0
KGO1 201827Z 15004KT 37/14 A3011 RMK A01 T03650143  RH  027%=      5-min Rain = 0
KGO1 201828Z 16008KT 37/15 A3011 RMK A01 T03650145  RH  027%=      5-min Rain = 0
KGO1 201829Z 16007KT 36/15 A3011 RMK A01 T03640147  RH  028%=      5-min Rain = 0
KGO1 201830Z 19005KT 36/15 A3011 RMK A01 T03630148  RH  028%=      5-min Rain = 0
KGO1 201831Z 23009KT 36/15 A3011 RMK A01 T03640149  RH  028%=      5-min Rain = 0
KGO1 201832Z 22006KT 36/15 A3011 RMK A01 T03590146  RH  028%=      5-min Rain = 0
KGO1 201833Z 21008KT 36/15 A3011 RMK A01 T03570152  RH  030%=      5-min Rain = 0
KGO1 201834Z 21006G11KT 36/15 A3011 RMK A01 T03600154  RH  029%=      5-min Rain = 0
KGO1 201835Z 22010KT 36/15 A3011 RMK A01 T03630151  RH  028%=      5-min Rain = 0
KGO1 201836Z 20014KT 36/15 A3011 RMK A01 T03630149  RH  028%=      5-min Rain = 0
KGO1 201837Z 19013KT 36/15 A3011 RMK A01 T03610147  RH  028%=      5-min Rain = 0
KGO1 201838Z 19012KT 36/14 A3011 RMK A01 T03570143  RH  028%=      5-min Rain = 0
KGO1 201839Z 20013KT 36/14 A3011 RMK A01 T03550143  RH  028%=      5-min Rain = 0
KGO1 201840Z 21013KT 35/14 A3011 RMK A01 T03540144  RH  029%=      5-min Rain = 0
KGO1 201841Z 21008KT 35/15 A3011 RMK A01 T03520147  RH  029%=      5-min Rain = 0
KGO1 201842Z 22009KT 35/15 A3011 RMK A01 T03520147  RH  029%=      5-min Rain = 0
KGO1 201843Z 20010KT 35/15 A3011 RMK A01 T03520148  RH  029%=      5-min Rain = 0
KGO1 201844Z 20010KT 35/15 A3011 RMK A01 T03520147  RH  029%=      5-min Rain = 0
KGO1 201845Z 20009KT 35/15 A3011 RMK A01 T03520149  RH  030%=      5-min Rain = 0
KGO1 201846Z 20010KT 35/15 A3011 RMK A01 T03540152  RH  030%=      5-min Rain = 0
KGO1 201847Z 19013KT 36/15 A3011 RMK A01 T03560148  RH  029%=      5-min Rain = 0
KGO1 201848Z 19008KT 36/15 A3011 RMK A01 T03550145  RH  028%=      5-min Rain = 0
KGO1 201849Z 19007KT 35/15 A3011 RMK A01 T03530146  RH  029%=      5-min Rain = 0
KGO1 201850Z 20008KT 35/15 A3011 RMK A01 T03530150  RH  030%=      5-min Rain = 0
KGO1 201851Z 21008KT 36/15 A3011 RMK A01 T03550150  RH  029%=      5-min Rain = 0
KGO1 201852Z 21007KT 35/15 A301 RMK A01 T03540151  RH  030%=      5-min Rain = 0
KGO1 201853Z 21007KT 35/15 A301 RMK A01 T03530150  RH  030%=      5-min Rain = 0
KGO1 201854Z 22006KT 35/15 A301 RMK A01 T03520151  RH  030%=      5-min Rain = 0
KGO1 201855Z 20005KT 35/15 A301 RMK A01 T03510150  RH  030%=      5-min Rain = 0
KGO1 201856Z 17007KT 35/15 A301 RMK A01 T03510151  RH  030%=      5-min Rain = 0
KGO1 201857Z 18009KT 35/15 A301 RMK A01 T03520151  RH  030%=      5-min Rain = 0
KGO1 201858Z 18006KT 35/15 A301 RMK A01 T03530154  RH  031%=      5-min Rain = 0
KGO1 201859Z 18008G13KT 35/15 A301 RMK A01 T03540151  RH  030%=      5-min Rain = 0
KGO1 201900Z 20009KT 35/15 A301 RMK A01 T03540154  RH  030%=      5-min Rain = 0
KGO1 201901Z 21010KT 35/16 A301 RMK A01 T03540156  RH  031%=      5-min Rain = 0
KGO1 201902Z 20014KT 35/16 A301 RMK A01 T03530155  RH  031%=      5-min Rain = 0
KGO1 201903Z 20013KT 35/15 A301 RMK A01 T03510153  RH  031%=      5-min Rain = 0
KGO1 201904Z 20010KT 35/15 A301 RMK A01 T03500152  RH  031%=      5-min Rain = 0
KGO1 201905Z 18009KT 35/15 A301 RMK A01 T03500153  RH  031%=      5-min Rain = 0
KGO1 201906Z 18009KT 35/15 A301 RMK A01 T03500153  RH  031%=      5-min Rain = 0
KGO1 201907Z 18010KT 35/15 A301 RMK A01 T03500154  RH  031%=      5-min Rain = 0
KGO1 201908Z 19009KT 35/15 A301 RMK A01 T03510154  RH  031%=      5-min Rain = 0
KGO1 201909Z 20011KT 35/15 A301 RMK A01 T03530154  RH  031%=      5-min Rain = 0
KGO1 201910Z 20010KT 35/15 A301 RMK A01 T03530153  RH  030%=      5-min Rain = 0
KGO1 201911Z 20007KT 35/15 A301 RMK A01 T03540154  RH  030%=      5-min Rain = 0
KGO1 201912Z 19006KT 36/16 A301 RMK A01 T03570156  RH  030%=      5-min Rain = 0
KGO1 201913Z 18006KT 36/16 A301 RMK A01 T03600159  RH  030%=      5-min Rain = 0
KGO1 201914Z 18006KT 36/16 A301 RMK A01 T03630157  RH  029%=      5-min Rain = 0
KGO1 201915Z 18006KT 36/16 A301 RMK A01 T03620155  RH  029%=      5-min Rain = 0
KGO1 201916Z 20005KT 36/16 A301 RMK A01 T03600156  RH  030%=      5-min Rain = 0
KGO1 201917Z 17006KT 36/16 A301 RMK A01 T03600159  RH  030%=      5-min Rain = 0
KGO1 201918Z 18008KT 36/16 A301 RMK A01 T03620157  RH  030%=      5-min Rain = 0
KGO1 201919Z 19010KT 36/16 A301 RMK A01 T03620156  RH  030%=      5-min Rain = 0
KGO1 201920Z 20004KT 36/15 A301 RMK A01 T03610153  RH  029%=      5-min Rain = 0
KGO1 201921Z 19006KT 36/16 A301 RMK A01 T03580155  RH  030%=      5-min Rain = 0
KGO1 201922Z 18008KT 36/16 A301 RMK A01 T03580156  RH  030%=      5-min Rain = 0
KGO1 201923Z 17009KT 36/16 A301 RMK A01 T03600157  RH  030%=      5-min Rain = 0
KGO1 201924Z 17010KT 36/16 A301 RMK A01 T03630155  RH  029%=      5-min Rain = 0
KGO1 201925Z 17012KT 37/16 A301 RMK A01 T03670156  RH  029%=      5-min Rain = 0
KGO1 201926Z 16012KT 37/15 A3009 RMK A01 T03710153  RH  028%=      5-min Rain = 0
KGO1 201927Z 16008KT 37/15 A3009 RMK A01 T03710152  RH  027%=      5-min Rain = 0
KGO1 201928Z 18010KT 37/15 A3009 RMK A01 T03710154  RH  028%=      5-min Rain = 0
KGO1 201929Z 20010KT 37/16 A3009 RMK A01 T03710155  RH  028%=      5-min Rain = 0
KGO1 201930Z 20007KT 37/16 A3009 RMK A01 T03710155  RH  028%=      5-min Rain = 0
KGO1 201931Z 21005KT 37/15 A3009 RMK A01 T03690153  RH  028%=      5-min Rain = 0
KGO1 201932Z 19006KT 37/15 A3009 RMK A01 T03650149  RH  028%=      5-min Rain = 0
KGO1 201933Z 15010KT 36/15 A3009 RMK A01 T03640154  RH  029%=      5-min Rain = 0
KGO1 201934Z 13007KT 37/15 A3009 RMK A01 T03660152  RH  028%=      5-min Rain = 0
KGO1 201935Z 12008KT 37/15 A3009 RMK A01 T03670153  RH  028%=      5-min Rain = 0
KGO1 201936Z 11005KT 37/15 A3009 RMK A01 T03670152  RH  028%=      5-min Rain = 0
KGO1 201937Z 12007KT 37/16 A3009 RMK A01 T03680156  RH  029%=      5-min Rain = 0
KGO1 201938Z 12010KT 37/15 A3009 RMK A01 T03700152  RH  028%=      5-min Rain = 0
KGO1 201939Z 13012KT 37/15 A3009 RMK A01 T03690151  RH  027%=      5-min Rain = 0
KGO1 201940Z 12009KT 37/15 A3009 RMK A01 T03670148  RH  027%=      5-min Rain = 0
KGO1 201941Z 13011KT 37/15 A3009 RMK A01 T03650150  RH  028%=      5-min Rain = 0
KGO1 201942Z 11009KT 37/15 A3009 RMK A01 T03660148  RH  027%=      5-min Rain = 0
KGO1 201943Z 10007KT 37/15 A3009 RMK A01 T03650150  RH  028%=      5-min Rain = 0
KGO1 201944Z 10009KT 37/15 A3009 RMK A01 T03650150  RH  028%=      5-min Rain = 0
KGO1 201945Z 11009KT 37/15 A3009 RMK A01 T03650150  RH  028%=      5-min Rain = 0
KGO1 201946Z 12006KT 37/15 A3009 RMK A01 T03650151  RH  028%=      5-min Rain = 0
KGO1 201947Z 12008KT 37/15 A3009 RMK A01 T03660148  RH  027%=      5-min Rain = 0
KGO1 201948Z 14006KT 36/15 A3009 RMK A01 T03630147  RH  028%=      5-min Rain = 0
KGO1 201949Z 17005KT 36/15 A3009 RMK A01 T03630149  RH  028%=      5-min Rain = 0
KGO1 201950Z 17002KT 36/15 A3009 RMK A01 T03630146  RH  027%=      5-min Rain = 0
KGO1 201951Z 18005KT 36/15 A3009 RMK A01 T03640150  RH  028%=      5-min Rain = 0
KGO1 201952Z 15010KT 37/15 A3009 RMK A01 T03660150  RH  028%=      5-min Rain = 0
KGO1 201953Z 17011KT 37/14 A3009 RMK A01 T03680144  RH  026%=      5-min Rain = 0
KGO1 201954Z 17010KT 37/14 A3009 RMK A01 T03670141  RH  026%=      5-min Rain = 0
KGO1 201955Z 15010KT 36/14 A3009 RMK A01 T03640142  RH  027%=      5-min Rain = 0
KGO1 201956Z 15011KT 37/14 A3009 RMK A01 T03650144  RH  027%=      5-min Rain = 0
KGO1 201957Z 16011KT 37/14 A3009 RMK A01 T03670141  RH  026%=      5-min Rain = 0
KGO1 201958Z 16013KT 37/14 A3009 RMK A01 T03680140  RH  026%=      5-min Rain = 0
KGO1 201959Z 14010KT 37/14 A3009 RMK A01 T03680142  RH  026%=      5-min Rain = 0
KGO1 202000Z 15011KT 37/15 A3009 RMK A01 T03710146  RH  026%=      5-min Rain = 0
KGO1 202001Z 17011KT 38/14 A3009 RMK A01 T03760142  RH  025%=      5-min Rain = 0
KGO1 202002Z 16012KT 38/14 A3009 RMK A01 T03760142  RH  025%=      5-min Rain = 0
KGO1 202003Z 17011KT 38/14 A3009 RMK A01 T03760142  RH  025%=      5-min Rain = 0
KGO1 202004Z 16010KT 38/14 A3009 RMK A01 T03760142  RH  025%=      5-min Rain = 0
KGO1 202005Z 16010KT 38/14 A3009 RMK A01 T03750141  RH  025%=      5-min Rain = 0
KGO1 202006Z 17009KT 37/14 A3009 RMK A01 T03710140  RH  025%=      5-min Rain = 0
KGO1 202007Z 18013KT 37/14 A3008 RMK A01 T03700140  RH  026%=      5-min Rain = 0
KGO1 202008Z 18013KT 37/14 A3008 RMK A01 T03680140  RH  026%=      5-min Rain = 0
KGO1 202009Z 17014KT 37/14 A3008 RMK A01 T03660139  RH  026%=      5-min Rain = 0
KGO1 202010Z 17014KT 37/14 A3008 RMK A01 T03660141  RH  026%=      5-min Rain = 0
KGO1 202011Z 16013KT 37/14 A3008 RMK A01 T03680143  RH  026%=      5-min Rain = 0
KGO1 202012Z 17013KT 37/14 A3008 RMK A01 T03710141  RH  026%=      5-min Rain = 0
KGO1 202013Z 15011KT 37/14 A3008 RMK A01 T03700142  RH  026%=      5-min Rain = 0
KGO1 202014Z 16013KT 37/14 A3008 RMK A01 T03700142  RH  026%=      5-min Rain = 0
KGO1 202015Z 17016KT 37/14 A3008 RMK A01 T03690142  RH  026%=      5-min Rain = 0
KGO1 202016Z 17010G15KT 37/14 A3008 RMK A01 T03680141  RH  026%=      5-min Rain = 0
KGO1 202017Z 16016KT 37/14 A3008 RMK A01 T03670144  RH  027%=      5-min Rain = 0
KGO1 202018Z 15013KT 37/15 A3008 RMK A01 T03680145  RH  027%=      5-min Rain = 0
KGO1 202019Z 16016KT 37/15 A3008 RMK A01 T03710146  RH  026%=      5-min Rain = 0
KGO1 202020Z 16013KT 37/14 A3008 RMK A01 T03710144  RH  026%=      5-min Rain = 0
KGO1 202021Z 17015G20KT 37/14 A3008 RMK A01 T03690144  RH  026%=      5-min Rain = 0
KGO1 202022Z 16013KT 37/14 A3008 RMK A01 T03680143  RH  026%=      5-min Rain = 0
KGO1 202023Z 15012KT 37/15 A3008 RMK A01 T03690145  RH  026%=      5-min Rain = 0
KGO1 202024Z 15011KT 37/15 A3008 RMK A01 T03730148  RH  026%=      5-min Rain = 0
KGO1 202025Z 16015KT 38/15 A3008 RMK A01 T03780148  RH  026%=      5-min Rain = 0
KGO1 202026Z 15016KT 38/15 A3008 RMK A01 T03790147  RH  025%=      5-min Rain = 0
KGO1 202027Z 16016KT 38/15 A3007 RMK A01 T03800147  RH  025%=      5-min Rain = 0
KGO1 202028Z 15009G14KT 38/15 A3008 RMK A01 T03770146  RH  025%=      5-min Rain = 0
KGO1 202029Z 16008KT 38/15 A3008 RMK A01 T03790151  RH  026%=      5-min Rain = 0
KGO1 202030Z 15013KT 38/15 A3007 RMK A01 T03830148  RH  025%=      5-min Rain = 0
KGO1 202031Z 16012KT 38/14 A3007 RMK A01 T03810142  RH  024%=      5-min Rain = 0
KGO1 202032Z 16014KT 38/14 A3007 RMK A01 T03760144  RH  025%=      5-min Rain = 0
KGO1 202033Z 15014KT 37/14 A3007 RMK A01 T03730144  RH  026%=      5-min Rain = 0
KGO1 202034Z 16012KT 37/14 A3007 RMK A01 T03700144  RH  026%=      5-min Rain = 0
KGO1 202035Z 17011KT 37/15 A3007 RMK A01 T03690145  RH  026%=      5-min Rain = 0
KGO1 202036Z 16016KT 37/15 A3007 RMK A01 T03700145  RH  026%=      5-min Rain = 0
KGO1 202037Z 15012KT 37/14 A3007 RMK A01 T03710144  RH  026%=      5-min Rain = 0
KGO1 202038Z 15011KT 37/14 A3007 RMK A01 T03720142  RH  026%=      5-min Rain = 0
KGO1 202039Z 14011KT 37/14 A3007 RMK A01 T03720141  RH  025%=      5-min Rain = 0
KGO1 202040Z 15012KT 37/14 A3007 RMK A01 T03710138  RH  025%=      5-min Rain = 0
KGO1 202041Z 15010KT 37/14 A3007 RMK A01 T03690139  RH  025%=      5-min Rain = 0
KGO1 202042Z 14010G15KT 37/14 A3007 RMK A01 T03680138  RH  025%=      5-min Rain = 0
KGO1 202043Z 15014KT 37/14 A3007 RMK A01 T03670138  RH  026%=      5-min Rain = 0
KGO1 202044Z 17015KT 37/13 A3007 RMK A01 T03670134  RH  025%=      5-min Rain = 0
KGO1 202045Z 17016KT 37/13 A3007 RMK A01 T03680134  RH  025%=      5-min Rain = 0
KGO1 202046Z 17013KT 37/13 A3007 RMK A01 T03660131  RH  025%=      5-min Rain = 0
KGO1 202047Z 17012KT 36/13 A3007 RMK A01 T03640133  RH  025%=      5-min Rain = 0
KGO1 202048Z 15010G15KT 36/13 A3007 RMK A01 T03620131  RH  025%=      5-min Rain = 0
KGO1 202049Z 16011KT 36/13 A3007 RMK A01 T03590129  RH  025%=      5-min Rain = 0
KGO1 202050Z 15013KT 36/13 A3007 RMK A01 T03590130  RH  025%=      5-min Rain = 0
KGO1 202051Z 15012KT 36/13 A3007 RMK A01 T03580129  RH  025%=      5-min Rain = 0
KGO1 202052Z 14014KT 36/13 A3007 RMK A01 T03570130  RH  026%=      5-min Rain = 0
KGO1 202053Z 13012KT 36/13 A3007 RMK A01 T03560129  RH  026%=      5-min Rain = 0
KGO1 202054Z 15010KT 36/13 A3007 RMK A01 T03550131  RH  026%=      5-min Rain = 0
KGO1 202055Z 15008KT 35/13 A3007 RMK A01 T03540134  RH  027%=      5-min Rain = 0
KGO1 202056Z 17010KT 36/14 A3006 RMK A01 T03550136  RH  027%=      5-min Rain = 0
KGO1 202057Z 18013KT 36/14 A3006 RMK A01 T03560135  RH  027%=      5-min Rain = 0
KGO1 202058Z 19013KT 36/14 A3006 RMK A01 T03560135  RH  027%=      5-min Rain = 0
KGO1 202059Z 18014KT 36/14 A3006 RMK A01 T03550136  RH  027%=      5-min Rain = 0
KGO1 202100Z 17012KT 36/14 A3006 RMK A01 T03550135  RH  027%=      5-min Rain = 0
KGO1 202101Z 16012KT 36/14 A3006 RMK A01 T03550136  RH  027%=      5-min Rain = 0
KGO1 202102Z 16011KT 36/14 A3006 RMK A01 T03550137  RH  027%=      5-min Rain = 0
KGO1 202103Z 16009KT 36/14 A3006 RMK A01 T03560139  RH  027%=      5-min Rain = 0
KGO1 202104Z 16009KT 36/14 A3006 RMK A01 T03580141  RH  027%=      5-min Rain = 0
KGO1 202105Z 16009KT 36/14 A3006 RMK A01 T03590139  RH  027%=      5-min Rain = 0
KGO1 202106Z 16012KT 36/14 A3006 RMK A01 T03610139  RH  027%=      5-min Rain = 0
KGO1 202107Z 17012KT 36/14 A3006 RMK A01 T03640137  RH  026%=      5-min Rain = 0
KGO1 202108Z 17009KT 37/14 A3006 RMK A01 T03660136  RH  025%=      5-min Rain = 0
KGO1 202109Z 16007KT 37/14 A3006 RMK A01 T03660136  RH  025%=      5-min Rain = 0
KGO1 202110Z 14006KT 36/14 A3006 RMK A01 T03640137  RH  026%=      5-min Rain = 0
KGO1 202111Z 13008KT 36/14 A3006 RMK A01 T03620138  RH  026%=      5-min Rain = 0
KGO1 202112Z 14011KT 36/14 A3006 RMK A01 T03610137  RH  026%=      5-min Rain = 0
KGO1 202113Z 19007KT 36/14 A3006 RMK A01 T03600138  RH  027%=      5-min Rain = 0
KGO1 202114Z 19006KT 36/14 A3006 RMK A01 T03600139  RH  027%=      5-min Rain = 0
KGO1 202115Z 19007KT 36/14 A3006 RMK A01 T03600137  RH  026%=      5-min Rain = 0
KGO1 202116Z 18010KT 36/14 A3006 RMK A01 T03590136  RH  026%=      5-min Rain = 0
KGO1 202117Z 16013KT 36/13 A3006 RMK A01 T03580134  RH  026%=      5-min Rain = 0
KGO1 202118Z 16014KT 36/14 A3005 RMK A01 T03570135  RH  026%=      5-min Rain = 0
KGO1 202119Z 15013KT 36/14 A3005 RMK A01 T03570135  RH  026%=      5-min Rain = 0
KGO1 202120Z 16008KT 36/14 A3005 RMK A01 T03570136  RH  027%=      5-min Rain = 0
KGO1 202121Z 19007KT 36/14 A3005 RMK A01 T03570137  RH  027%=      5-min Rain = 0
KGO1 202122Z 20012KT 36/14 A3005 RMK A01 T03580137  RH  027%=      5-min Rain = 0
KGO1 202123Z 19009KT 36/13 A3005 RMK A01 T03570134  RH  026%=      5-min Rain = 0
KGO1 202124Z 20007KT 36/13 A3005 RMK A01 T03560134  RH  026%=      5-min Rain = 0
KGO1 202125Z 19007KT 36/13 A3005 RMK A01 T03560134  RH  026%=      5-min Rain = 0
KGO1 202126Z 18006KT 36/13 A3005 RMK A01 T03570134  RH  026%=      5-min Rain = 0
KGO1 202127Z 21007G12KT 36/14 A3005 RMK A01 T03590137  RH  027%=      5-min Rain = 0
KGO1 202128Z 21010KT 36/14 A3005 RMK A01 T03600138  RH  026%=      5-min Rain = 0
KGO1 202129Z 20008KT 36/14 A3005 RMK A01 T03600137  RH  026%=      5-min Rain = 0
KGO1 202130Z 21010KT 36/14 A3005 RMK A01 T03590137  RH  026%=      5-min Rain = 0
KGO1 202131Z 21008KT 36/14 A3005 RMK A01 T03590135  RH  026%=      5-min Rain = 0
KGO1 202132Z 21008KT 36/14 A3005 RMK A01 T03590139  RH  027%=      5-min Rain = 0
KGO1 202133Z 21009KT 36/14 A3005 RMK A01 T03620139  RH  026%=      5-min Rain = 0
KGO1 202134Z 20009KT 36/14 A3005 RMK A01 T03640138  RH  026%=      5-min Rain = 0
KGO1 202135Z 19007KT 37/14 A3005 RMK A01 T03670137  RH  025%=      5-min Rain = 0
KGO1 202136Z 17010KT 37/14 A3005 RMK A01 T03700139  RH  025%=      5-min Rain = 0
KGO1 202137Z 16011KT 37/14 A3004 RMK A01 T03730140  RH  025%=      5-min Rain = 0
KGO1 202138Z 15010KT 37/14 A3004 RMK A01 T03740137  RH  024%=      5-min Rain = 0
KGO1 202139Z 15011KT 37/14 A3004 RMK A01 T03720137  RH  025%=      5-min Rain = 0
KGO1 202140Z 17009KT 37/14 A3004 RMK A01 T03700138  RH  025%=      5-min Rain = 0
KGO1 202141Z 18008KT 37/14 A3004 RMK A01 T03730140  RH  025%=      5-min Rain = 0
KGO1 202142Z 19007KT 38/14 A3004 RMK A01 T03760137  RH  024%=      5-min Rain = 0
KGO1 202143Z 19007KT 37/14 A3005 RMK A01 T03740136  RH  024%=      5-min Rain = 0
KGO1 202144Z 16011KT 37/14 A3005 RMK A01 T03720137  RH  025%=      5-min Rain = 0
KGO1 202145Z 16012KT 37/13 A3004 RMK A01 T03730134  RH  024%=      5-min Rain = 0
KGO1 202146Z 16012KT 37/13 A3005 RMK A01 T03740133  RH  024%=      5-min Rain = 0
KGO1 202147Z 16014KT 37/13 A3005 RMK A01 T03730132  RH  024%=      5-min Rain = 0
KGO1 202148Z 17014KT 37/13 A3005 RMK A01 T03720131  RH  024%=      5-min Rain = 0
KGO1 202149Z 16013KT 37/13 A3005 RMK A01 T03700129  RH  024%=      5-min Rain = 0
KGO1 202150Z 16013KT 37/13 A3005 RMK A01 T03680128  RH  024%=      5-min Rain = 0
KGO1 202151Z 16010KT 37/13 A3005 RMK A01 T03660128  RH  024%=      5-min Rain = 0
KGO1 202152Z 15011KT 37/13 A3004 RMK A01 T03660129  RH  024%=      5-min Rain = 0
KGO1 202153Z 16010KT 37/13 A3004 RMK A01 T03680129  RH  024%=      5-min Rain = 0
KGO1 202154Z 17007KT 37/13 A3004 RMK A01 T03730130  RH  023%=      5-min Rain = 0
KGO1 202155Z 14009KT 38/13 A3004 RMK A01 T03780132  RH  023%=      5-min Rain = 0
KGO1 202156Z 14013KT 38/13 A3004 RMK A01 T03790134  RH  023%=      5-min Rain = 0
KGO1 202157Z 15011KT 38/13 A3004 RMK A01 T03770133  RH  023%=      5-min Rain = 0
KGO1 202158Z 16015KT 37/13 A3004 RMK A01 T03730130  RH  023%=      5-min Rain = 0
KGO1 202159Z 15010KT 37/13 A3004 RMK A01 T03700129  RH  024%=      5-min Rain = 0
KGO1 202200Z 15009KT 37/13 A3004 RMK A01 T03680129  RH  024%=      5-min Rain = 0
KGO1 202201Z 13007KT 37/13 A3004 RMK A01 T03670130  RH  024%=      5-min Rain = 0
KGO1 202202Z 14004KT 37/13 A3004 RMK A01 T03660132  RH  025%=      5-min Rain = 0
KGO1 202203Z 16010KT 37/13 A3004 RMK A01 T03660132  RH  025%=      5-min Rain = 0
KGO1 202204Z 15011KT 37/14 A3004 RMK A01 T03660135  RH  025%=      5-min Rain = 0
KGO1 202205Z 15011KT 37/14 A3004 RMK A01 T03660135  RH  025%=      5-min Rain = 0
KGO1 202206Z 15011KT 37/13 A3004 RMK A01 T03670134  RH  025%=      5-min Rain = 0
KGO1 202207Z 17011KT 37/13 A3004 RMK A01 T03670134  RH  025%=      5-min Rain = 0
KGO1 202208Z 16008KT 37/13 A3004 RMK A01 T03670133  RH  025%=      5-min Rain = 0
KGO1 202209Z 16006KT 37/13 A3004 RMK A01 T03680133  RH  025%=      5-min Rain = 0
KGO1 202210Z 15005KT 37/13 A3004 RMK A01 T03680131  RH  024%=      5-min Rain = 0
KGO1 202211Z 16004KT 37/13 A3004 RMK A01 T03670130  RH  024%=      5-min Rain = 0
KGO1 202212Z 15003KT 37/13 A3004 RMK A01 T03650129  RH  024%=      5-min Rain = 0
KGO1 202213Z 15003KT 36/13 A3004 RMK A01 T03640132  RH  025%=      5-min Rain = 0
KGO1 202214Z 18006KT 37/13 A3004 RMK A01 T03650134  RH  025%=      5-min Rain = 0
KGO1 202215Z 18008KT 37/13 A3004 RMK A01 T03650134  RH  025%=      5-min Rain = 0
KGO1 202216Z 20008KT 37/13 A3004 RMK A01 T03650133  RH  025%=      5-min Rain = 0
KGO1 202217Z 22008KT 36/13 A3004 RMK A01 T03640133  RH  025%=      5-min Rain = 0
KGO1 202218Z 23008KT 36/13 A3004 RMK A01 T03630133  RH  025%=      5-min Rain = 0
KGO1 202219Z 21008KT 36/14 A3004 RMK A01 T03620135  RH  026%=      5-min Rain = 0
KGO1 202220Z 17007KT 36/13 A3004 RMK A01 T03620134  RH  026%=      5-min Rain = 0
KGO1 202221Z 17011KT 36/14 A3004 RMK A01 T03630135  RH  026%=      5-min Rain = 0
KGO1 202222Z 18011KT 36/13 A3004 RMK A01 T03640134  RH  025%=      5-min Rain = 0
KGO1 202223Z 17013KT 37/13 A3004 RMK A01 T03650133  RH  025%=      5-min Rain = 0
KGO1 202224Z 17011KT 36/13 A3004 RMK A01 T03640131  RH  025%=      5-min Rain = 0
KGO1 202225Z 16011KT 36/13 A3004 RMK A01 T03640132  RH  025%=      5-min Rain = 0
KGO1 202226Z 15010KT 36/13 A3004 RMK A01 T03640133  RH  025%=      5-min Rain = 0
KGO1 202227Z 15011KT 36/13 A3004 RMK A01 T03640133  RH  025%=      5-min Rain = 0
KGO1 202228Z 15010KT 36/13 A3004 RMK A01 T03640131  RH  025%=      5-min Rain = 0
KGO1 202229Z 16010KT 36/13 A3004 RMK A01 T03640133  RH  025%=      5-min Rain = 0
KGO1 202230Z 16008KT 36/13 A3004 RMK A01 T03630132  RH  025%=      5-min Rain = 0
KGO1 202231Z 17009KT 36/13 A3004 RMK A01 T03620133  RH  025%=      5-min Rain = 0
KGO1 202232Z 17010KT 36/13 A3004 RMK A01 T03620132  RH  025%=      5-min Rain = 0
KGO1 202233Z 16008KT 36/13 A3004 RMK A01 T03630133  RH  025%=      5-min Rain = 0
KGO1 202234Z 17009KT 36/13 A3004 RMK A01 T03630132  RH  025%=      5-min Rain = 0
KGO1 202235Z 18007KT 36/13 A3004 RMK A01 T03630129  RH  025%=      5-min Rain = 0
KGO1 202236Z 17007KT 36/13 A3004 RMK A01 T03630129  RH  025%=      5-min Rain = 0
KGO1 202237Z 16006KT 36/13 A3004 RMK A01 T03630129  RH  025%=      5-min Rain = 0
KGO1 202238Z 15008KT 36/13 A3004 RMK A01 T03640129  RH  025%=      5-min Rain = 0
KGO1 202239Z 16008KT 36/13 A3004 RMK A01 T03630131  RH  025%=      5-min Rain = 0
KGO1 202240Z 17008KT 36/13 A3004 RMK A01 T03630134  RH  025%=      5-min Rain = 0
KGO1 202241Z 17008KT 36/13 A3004 RMK A01 T03630133  RH  025%=      5-min Rain = 0
KGO1 202242Z 17009KT 36/13 A3004 RMK A01 T03630132  RH  025%=      5-min Rain = 0
KGO1 202243Z 17008KT 36/13 A3004 RMK A01 T03630131  RH  025%=      5-min Rain = 0
KGO1 202244Z 17007KT 36/13 A3004 RMK A01 T03630133  RH  025%=      5-min Rain = 0
KGO1 202245Z 17008KT 36/13 A3004 RMK A01 T03630132  RH  025%=      5-min Rain = 0
KGO1 202246Z 16010KT 36/13 A3004 RMK A01 T03630133  RH  025%=      5-min Rain = 0
KGO1 202247Z 16015KT 36/13 A3004 RMK A01 T03630133  RH  025%=      5-min Rain = 0
KGO1 202248Z 15014KT 36/13 A3004 RMK A01 T03610131  RH  025%=      5-min Rain = 0
KGO1 202249Z 16011KT 36/13 A3004 RMK A01 T03580131  RH  026%=      5-min Rain = 0
KGO1 202250Z 16016KT 36/13 A3004 RMK A01 T03580132  RH  026%=      5-min Rain = 0
KGO1 202251Z 16015KT 36/13 A3004 RMK A01 T03580131  RH  026%=      5-min Rain = 0
KGO1 202252Z 16015KT 36/13 A3004 RMK A01 T03580131  RH  026%=      5-min Rain = 0
KGO1 202253Z 15015G20KT 36/13 A3004 RMK A01 T03570129  RH  025%=      5-min Rain = 0
KGO1 202254Z 15017KT 36/12 A3004 RMK A01 T03570122  RH  024%=      5-min Rain = 0
KGO1 202255Z 14020KT 36/13 A3004 RMK A01 T03550126  RH  025%=      5-min Rain = 0
KGO1 202256Z 15021G26KT 35/13 A3004 RMK A01 T03530128  RH  026%=      5-min Rain = 0
KGO1 202257Z 15020KT 35/13 A3004 RMK A01 T03510128  RH  026%=      5-min Rain = 0
KGO1 202258Z 15018KT 35/13 A3004 RMK A01 T03500127  RH  026%=      5-min Rain = 0
KGO1 202259Z 14018KT 35/13 A3004 RMK A01 T03490128  RH  026%=      5-min Rain = 0
KGO1 202300Z 14018KT 35/13 A3004 RMK A01 T03500128  RH  026%=      5-min Rain = 0
KGO1 202301Z 15019KT 35/13 A3004 RMK A01 T03490128  RH  026%=      5-min Rain = 0
KGO1 202302Z 15023G28KT 35/14 A3004 RMK A01 T03480138  RH  029%=      5-min Rain = 0
KGO1 202303Z 16020KT 34/14 A3004 RMK A01 T03410142  RH  030%=      5-min Rain = 0
KGO1 202304Z 16017KT 34/14 A3004 RMK A01 T03370141  RH  031%=      5-min Rain = 0
KGO1 202305Z 15016KT 34/14 A3004 RMK A01 T03370140  RH  031%=      5-min Rain = 0
KGO1 202306Z 14015KT 34/14 A3004 RMK A01 T03370140  RH  031%=      5-min Rain = 0
KGO1 202307Z 15015KT 34/14 A3004 RMK A01 T03370141  RH  031%=      5-min Rain = 0
KGO1 202308Z 15018KT 34/14 A3004 RMK A01 T03360140  RH  031%=      5-min Rain = 0
KGO1 202309Z 15016KT 34/14 A3004 RMK A01 T03350140  RH  031%=      5-min Rain = 0
KGO1 202310Z 15015KT 33/14 A3004 RMK A01 T03340141  RH  031%=      5-min Rain = 0
KGO1 202311Z 14016G22KT 33/14 A3004 RMK A01 T03330141  RH  031%=      5-min Rain = 0
KGO1 202312Z 15018KT 33/14 A3004 RMK A01 T03330138  RH  031%=      5-min Rain = 0
KGO1 202313Z 15016KT 33/14 A3004 RMK A01 T03320137  RH  031%=      5-min Rain = 0
KGO1 202314Z 15017KT 33/14 A3004 RMK A01 T03320136  RH  030%=      5-min Rain = 0
KGO1 202315Z 15015KT 33/13 A3004 RMK A01 T03320134  RH  030%=      5-min Rain = 0
KGO1 202316Z 16013KT 33/13 A3004 RMK A01 T03320134  RH  030%=      5-min Rain = 0
KGO1 202317Z 15015G20KT 33/14 A3004 RMK A01 T03320135  RH  030%=      5-min Rain = 0
KGO1 202318Z 16016KT 33/14 A3004 RMK A01 T03320135  RH  030%=      5-min Rain = 0
KGO1 202319Z 16017KT 33/13 A3004 RMK A01 T03320133  RH  030%=      5-min Rain = 0
KGO1 202320Z 16016KT 33/13 A3005 RMK A01 T03320131  RH  030%=      5-min Rain = 0
KGO1 202321Z 16019KT 33/12 A3005 RMK A01 T03320123  RH  028%=      5-min Rain = 0
KGO1 202322Z 17020KT 33/12 A3005 RMK A01 T03320119  RH  027%=      5-min Rain = 0
KGO1 202323Z 17019G25KT 33/12 A3005 RMK A01 T03320118  RH  027%=      5-min Rain = 0
KGO1 202324Z 16015G21KT 33/12 A3005 RMK A01 T03290118  RH  028%=      5-min Rain = 0
KGO1 202325Z 16018KT 33/12 A3005 RMK A01 T03270118  RH  028%=      5-min Rain = 0
KGO1 202326Z 16018KT 33/12 A3005 RMK A01 T03250118  RH  028%=      5-min Rain = 0
KGO1 202327Z 16015KT 32/12 A3005 RMK A01 T03240119  RH  029%=      5-min Rain = 0
KGO1 202328Z 16017KT 32/12 A3005 RMK A01 T03230119  RH  029%=      5-min Rain = 0
KGO1 202329Z 16016KT 32/12 A3005 RMK A01 T03230116  RH  028%=      5-min Rain = 0
KGO1 202330Z 16015KT 32/12 A3005 RMK A01 T03240117  RH  028%=      5-min Rain = 0
KGO1 202331Z 15016KT 32/12 A3005 RMK A01 T03240118  RH  028%=      5-min Rain = 0
KGO1 202332Z 15015KT 32/12 A3005 RMK A01 T03240117  RH  028%=      5-min Rain = 0
KGO1 202333Z 15014KT 32/12 A3005 RMK A01 T03240118  RH  028%=      5-min Rain = 0
KGO1 202334Z 15015KT 32/12 A3005 RMK A01 T03240119  RH  029%=      5-min Rain = 0
KGO1 202335Z 15012KT 33/12 A3005 RMK A01 T03250119  RH  029%=      5-min Rain = 0
KGO1 202336Z 14010KT 32/12 A3005 RMK A01 T03240121  RH  029%=      5-min Rain = 0
KGO1 202337Z 14011KT 33/12 A3005 RMK A01 T03250122  RH  029%=      5-min Rain = 0
KGO1 202338Z 14009KT 32/12 A3006 RMK A01 T03240122  RH  029%=      5-min Rain = 0
KGO1 202339Z 15010KT 33/12 A3006 RMK A01 T03250122  RH  029%=      5-min Rain = 0
KGO1 202340Z 15011KT 33/12 A3006 RMK A01 T03250121  RH  029%=      5-min Rain = 0
KGO1 202341Z 16014KT 33/12 A3006 RMK A01 T03260121  RH  029%=      5-min Rain = 0
KGO1 202342Z 16019G24KT 33/13 A3006 RMK A01 T03270125  RH  029%=      5-min Rain = 0
KGO1 202343Z 18022KT 32/14 A3006 RMK A01 T03240138  RH  032%=      5-min Rain = 0
KGO1 202344Z 17016KT 32/14 A3007 RMK A01 T03170142  RH  035%=      5-min Rain = 0
KGO1 202345Z 18017KT 31/15 A3006 RMK A01 T03120145  RH  036%=      5-min Rain = 0
KGO1 202346Z 17015KT 31/15 A3007 RMK A01 T03090146  RH  037%=      5-min Rain = 0
KGO1 202347Z 18017KT 31/15 A3007 RMK A01 T03070147  RH  038%=      5-min Rain = 0
KGO1 202348Z 18015KT 31/15 A3007 RMK A01 T03050148  RH  039%=      5-min Rain = 0
KGO1 202349Z 18013KT 30/15 A3007 RMK A01 T03030150  RH  039%=      5-min Rain = 0
KGO1 202350Z 17014KT 30/15 A3006 RMK A01 T03020149  RH  040%=      5-min Rain = 0
KGO1 202351Z 16015KT 30/15 A3006 RMK A01 T03010149  RH  040%=      5-min Rain = 0
KGO1 202352Z 17014KT 30/15 A3006 RMK A01 T03010149  RH  040%=      5-min Rain = 0
KGO1 202353Z 17012KT 30/15 A3006 RMK A01 T03000150  RH  040%=      5-min Rain = 0
KGO1 202354Z 17013KT 30/15 A3006 RMK A01 T03000149  RH  040%=      5-min Rain = 0
KGO1 202355Z 16014KT 30/15 A3006 RMK A01 T03010150  RH  040%=      5-min Rain = 0
KGO1 202356Z 16016KT 30/15 A3006 RMK A01 T03010150  RH  040%=      5-min Rain = 0
KGO1 202357Z 16015KT 30/15 A3006 RMK A01 T03010150  RH  040%=      5-min Rain = 0
KGO1 202358Z 16015KT 30/15 A3006 RMK A01 T03010149  RH  040%=      5-min Rain = 0
KGO1 202359Z 16012KT 30/15 A3006 RMK A01 T03010149  RH  040%=      5-min Rain = 0
KGO1 210000Z 16015KT 30/15 A3006 RMK A01 T03010146  RH  039%=      5-min Rain = 0
KGO1 210001Z 16012KT 30/14 A3006 RMK A01 T03020144  RH  038%=      5-min Rain = 0
KGO1 210002Z 16011KT 30/15 A3006 RMK A01 T03030145  RH  038%=      5-min Rain = 0
KGO1 210003Z 16011KT 30/14 A3006 RMK A01 T03040144  RH  038%=      5-min Rain = 0
KGO1 210004Z 17012KT 31/14 A3006 RMK A01 T03050142  RH  037%=      5-min Rain = 0
KGO1 210005Z 16010KT 31/14 A3006 RMK A01 T03060142  RH  037%=      5-min Rain = 0
KGO1 210006Z 16011KT 31/14 A3006 RMK A01 T03070141  RH  036%=      5-min Rain = 0
KGO1 210007Z 16011KT 31/14 A3006 RMK A01 T03080141  RH  036%=      5-min Rain = 0
KGO1 210008Z 16011KT 31/14 A3006 RMK A01 T03080140  RH  036%=      5-min Rain = 0
KGO1 210009Z 17010KT 31/14 A3006 RMK A01 T03090140  RH  036%=      5-min Rain = 0
KGO1 210010Z 16012KT 31/14 A3006 RMK A01 T03100140  RH  035%=      5-min Rain = 0
KGO1 210011Z 16011KT 31/14 A3006 RMK A01 T03110139  RH  035%=      5-min Rain = 0
KGO1 210012Z 17012KT 31/14 A3006 RMK A01 T03120139  RH  035%=      5-min Rain = 0
KGO1 210013Z 17013KT 31/14 A3006 RMK A01 T03130137  RH  034%=      5-min Rain = 0
KGO1 210014Z 17011KT 31/14 A3006 RMK A01 T03140137  RH  034%=      5-min Rain = 0
KGO1 210015Z 17011KT 32/14 A3006 RMK A01 T03150136  RH  034%=      5-min Rain = 0
KGO1 210016Z 17011KT 32/14 A3006 RMK A01 T03160135  RH  033%=      5-min Rain = 0
KGO1 210017Z 17012KT 32/13 A3006 RMK A01 T03170134  RH  033%=      5-min Rain = 0
KGO1 210018Z 17011KT 32/13 A3006 RMK A01 T03170133  RH  033%=      5-min Rain = 0
KGO1 210019Z 17010KT 32/13 A3006 RMK A01 T03180133  RH  032%=      5-min Rain = 0
KGO1 210020Z 17010KT 32/13 A3006 RMK A01 T03180133  RH  032%=      5-min Rain = 0
KGO1 210021Z 17011KT 32/13 A3006 RMK A01 T03180131  RH  032%=      5-min Rain = 0
KGO1 210022Z 17010KT 32/13 A3006 RMK A01 T03180130  RH  032%=      5-min Rain = 0
KGO1 210023Z 17010KT 32/13 A3006 RMK A01 T03190130  RH  032%=      5-min Rain = 0
KGO1 210024Z 16009KT 32/13 A3006 RMK A01 T03190130  RH  032%=      5-min Rain = 0
KGO1 210025Z 16009KT 32/13 A3006 RMK A01 T03200129  RH  031%=      5-min Rain = 0
KGO1 210026Z 16010KT 32/13 A3005 RMK A01 T03200129  RH  031%=      5-min Rain = 0
KGO1 210027Z 16008KT 32/13 A3005 RMK A01 T03200126  RH  031%=      5-min Rain = 0
KGO1 210028Z 16009KT 32/13 A3005 RMK A01 T03200126  RH  030%=      5-min Rain = 0
KGO1 210029Z 16009KT 32/12 A3005 RMK A01 T03210122  RH  030%=      5-min Rain = 0
KGO1 210030Z 16009KT 32/12 A3005 RMK A01 T03210121  RH  029%=      5-min Rain = 0
KGO1 210031Z 16010KT 32/12 A3005 RMK A01 T03220120  RH  029%=      5-min Rain = 0
KGO1 210032Z 16010KT 32/12 A3005 RMK A01 T03230119  RH  029%=      5-min Rain = 0
KGO1 210033Z 16008KT 32/12 A3005 RMK A01 T03230119  RH  029%=      5-min Rain = 0
KGO1 210034Z 16008KT 32/12 A3005 RMK A01 T03230118  RH  029%=      5-min Rain = 0
KGO1 210035Z 16008KT 32/12 A3005 RMK A01 T03230118  RH  029%=      5-min Rain = 0
KGO1 210036Z 15008KT 32/12 A3005 RMK A01 T03230119  RH  029%=      5-min Rain = 0
KGO1 210037Z 15007KT 32/12 A3005 RMK A01 T03230119  RH  029%=      5-min Rain = 0
KGO1 210038Z 15007KT 32/12 A3005 RMK A01 T03230120  RH  029%=      5-min Rain = 0
KGO1 210039Z 15007KT 32/12 A3005 RMK A01 T03220120  RH  029%=      5-min Rain = 0
KGO1 210040Z 15008KT 32/12 A3005 RMK A01 T03220121  RH  029%=      5-min Rain = 0
KGO1 210041Z 15007KT 32/12 A3005 RMK A01 T03220120  RH  029%=      5-min Rain = 0
KGO1 210042Z 15007KT 32/12 A3005 RMK A01 T03220121  RH  029%=      5-min Rain = 0
KGO1 210043Z 15006KT 32/12 A3005 RMK A01 T03220121  RH  029%=      5-min Rain = 0
KGO1 210044Z 15006KT 32/12 A3005 RMK A01 T03210121  RH  029%=      5-min Rain = 0
KGO1 210045Z 15007KT 32/12 A3005 RMK A01 T03210122  RH  030%=      5-min Rain = 0
KGO1 210046Z 15006KT 32/12 A3005 RMK A01 T03210122  RH  030%=      5-min Rain = 0
KGO1 210047Z 15008KT 32/12 A3005 RMK A01 T03200121  RH  030%=      5-min Rain = 0
KGO1 210048Z 14007KT 32/12 A3005 RMK A01 T03210120  RH  029%=      5-min Rain = 0
KGO1 210049Z 15006KT 32/12 A3005 RMK A01 T03210121  RH  029%=      5-min Rain = 0
KGO1 210050Z 15007KT 32/12 A3005 RMK A01 T03210122  RH  030%=      5-min Rain = 0
KGO1 210051Z 16007KT 32/12 A3005 RMK A01 T03210122  RH  030%=      5-min Rain = 0
KGO1 210052Z 16007KT 32/12 A3005 RMK A01 T03210122  RH  030%=      5-min Rain = 0
KGO1 210053Z 16008KT 32/12 A3005 RMK A01 T03210122  RH  030%=      5-min Rain = 0
KGO1 210054Z 16008KT 32/12 A3005 RMK A01 T03220124  RH  030%=      5-min Rain = 0
KGO1 210055Z 16007KT 32/12 A3005 RMK A01 T03220124  RH  030%=      5-min Rain = 0
KGO1 210056Z 16007KT 32/12 A3005 RMK A01 T03220124  RH  030%=      5-min Rain = 0
KGO1 210057Z 17006KT 32/13 A3005 RMK A01 T03210125  RH  030%=      5-min Rain = 0
KGO1 210058Z 17007KT 32/13 A3005 RMK A01 T03210125  RH  030%=      5-min Rain = 0
KGO1 210059Z 17006KT 32/13 A3005 RMK A01 T03210126  RH  031%=      5-min Rain = 0
KGO1 210100Z 17005KT 32/13 A3005 RMK A01 T03200127  RH  031%=      5-min Rain = 0
KGO1 210101Z 17006KT 32/13 A3006 RMK A01 T03200128  RH  031%=      5-min Rain = 0
KGO1 210102Z 18006KT 32/13 A3006 RMK A01 T03190129  RH  031%=      5-min Rain = 0
KGO1 210103Z 18005KT 32/13 A3006 RMK A01 T03190129  RH  032%=      5-min Rain = 0
KGO1 210104Z 17005KT 32/13 A3006 RMK A01 T03180129  RH  032%=      5-min Rain = 0
KGO1 210105Z 17005KT 32/13 A3006 RMK A01 T03180129  RH  032%=      5-min Rain = 0
KGO1 210106Z 17005KT 32/13 A3006 RMK A01 T03170130  RH  032%=      5-min Rain = 0
KGO1 210107Z 17005KT 32/13 A3006 RMK A01 T03170131  RH  032%=      5-min Rain = 0
KGO1 210108Z 17005KT 32/13 A3006 RMK A01 T03170131  RH  032%=      5-min Rain = 0
KGO1 210109Z 16005KT 32/13 A3006 RMK A01 T03160132  RH  033%=      5-min Rain = 0
KGO1 210110Z 16005KT 32/13 A3006 RMK A01 T03160133  RH  033%=      5-min Rain = 0
KGO1 210111Z 16006KT 32/13 A3006 RMK A01 T03150134  RH  033%=      5-min Rain = 0
KGO1 210112Z 16006KT 32/14 A3006 RMK A01 T03150135  RH  033%=      5-min Rain = 0
KGO1 210113Z 15005KT 32/14 A3006 RMK A01 T03150135  RH  033%=      5-min Rain = 0
KGO1 210114Z 15005KT 32/14 A3006 RMK A01 T03150136  RH  033%=      5-min Rain = 0
KGO1 210115Z 15005KT 32/14 A3006 RMK A01 T03150136  RH  034%=      5-min Rain = 0
KGO1 210116Z 16006KT 31/14 A3006 RMK A01 T03140136  RH  034%=      5-min Rain = 0
KGO1 210117Z 17006KT 31/14 A3006 RMK A01 T03140136  RH  034%=      5-min Rain = 0
KGO1 210118Z 18005KT 31/14 A3006 RMK A01 T03140136  RH  034%=      5-min Rain = 0
KGO1 210119Z 18005KT 31/14 A3006 RMK A01 T03130137  RH  034%=      5-min Rain = 0
KGO1 210120Z 18005KT 31/14 A3006 RMK A01 T03130138  RH  034%=      5-min Rain = 0
KGO1 210121Z 17007KT 31/14 A3006 RMK A01 T03120137  RH  035%=      5-min Rain = 0
KGO1 210122Z 18005KT 31/14 A3006 RMK A01 T03120137  RH  034%=      5-min Rain = 0
KGO1 210123Z 18005KT 31/14 A3006 RMK A01 T03120137  RH  034%=      5-min Rain = 0
KGO1 210124Z 18006KT 31/14 A3006 RMK A01 T03130138  RH  034%=      5-min Rain = 0
KGO1 210125Z 18006KT 31/14 A3006 RMK A01 T03130138  RH  035%=      5-min Rain = 0
KGO1 210126Z 18006KT 31/14 A3006 RMK A01 T03120138  RH  035%=      5-min Rain = 0
KGO1 210127Z 18005KT 31/14 A3006 RMK A01 T03120138  RH  035%=      5-min Rain = 0
KGO1 210128Z 18005KT 31/14 A3006 RMK A01 T03120139  RH  035%=      5-min Rain = 0
KGO1 210129Z 18005KT 31/14 A3006 RMK A01 T03110139  RH  035%=      5-min Rain = 0
KGO1 210130Z 18005KT 31/14 A3006 RMK A01 T03110139  RH  035%=      5-min Rain = 0
KGO1 210131Z 18006KT 31/14 A3006 RMK A01 T03100139  RH  035%=      5-min Rain = 0
KGO1 210132Z 17005KT 31/14 A3006 RMK A01 T03100140  RH  036%=      5-min Rain = 0
KGO1 210133Z 17005KT 31/14 A3006 RMK A01 T03090139  RH  036%=      5-min Rain = 0
KGO1 210134Z 17005KT 31/14 A3006 RMK A01 T03090140  RH  036%=      5-min Rain = 0
KGO1 210135Z 17005KT 31/14 A3007 RMK A01 T03080140  RH  036%=      5-min Rain = 0
KGO1 210136Z 17005KT 31/14 A3007 RMK A01 T03070140  RH  036%=      5-min Rain = 0
KGO1 210137Z 17005KT 31/14 A3007 RMK A01 T03070141  RH  036%=      5-min Rain = 0
KGO1 210138Z 17005KT 31/14 A3007 RMK A01 T03070141  RH  036%=      5-min Rain = 0
KGO1 210139Z 17005KT 31/14 A3007 RMK A01 T03060141  RH  037%=      5-min Rain = 0
KGO1 210140Z 17005KT 31/14 A3007 RMK A01 T03060141  RH  037%=      5-min Rain = 0
KGO1 210141Z 17005KT 31/14 A3007 RMK A01 T03050142  RH  037%=      5-min Rain = 0
KGO1 210142Z 16004KT 31/14 A3007 RMK A01 T03050142  RH  037%=      5-min Rain = 0
KGO1 210143Z 16004KT 30/14 A3007 RMK A01 T03040142  RH  037%=      5-min Rain = 0
KGO1 210144Z 16004KT 30/14 A3007 RMK A01 T03040143  RH  038%=      5-min Rain = 0
KGO1 210145Z 16003KT 30/14 A3007 RMK A01 T03030143  RH  038%=      5-min Rain = 0
KGO1 210146Z 16004KT 30/14 A3007 RMK A01 T03030143  RH  038%=      5-min Rain = 0
KGO1 210147Z 16004KT 30/14 A3007 RMK A01 T03030143  RH  038%=      5-min Rain = 0
KGO1 210148Z 16004KT 30/14 A3007 RMK A01 T03020144  RH  038%=      5-min Rain = 0
KGO1 210149Z 15004KT 30/14 A3007 RMK A01 T03020143  RH  038%=      5-min Rain = 0
KGO1 210150Z 15004KT 30/14 A3007 RMK A01 T03020144  RH  038%=      5-min Rain = 0
KGO1 210151Z 15004KT 30/14 A3007 RMK A01 T03010144  RH  038%=      5-min Rain = 0
KGO1 210152Z 15004KT 30/15 A3007 RMK A01 T03010145  RH  039%=      5-min Rain = 0
KGO1 210153Z 14004KT 30/15 A3007 RMK A01 T03010145  RH  039%=      5-min Rain = 0
KGO1 210154Z 14003KT 30/15 A3007 RMK A01 T03000145  RH  039%=      5-min Rain = 0
KGO1 210155Z 14004KT 30/15 A3007 RMK A01 T03000145  RH  039%=      5-min Rain = 0
KGO1 210156Z 14004KT 30/15 A3007 RMK A01 T03000145  RH  039%=      5-min Rain = 0
KGO1 210157Z 14004KT 30/15 A3007 RMK A01 T02990145  RH  039%=      5-min Rain = 0
KGO1 210158Z 14004KT 30/15 A3007 RMK A01 T02980146  RH  039%=      5-min Rain = 0
KGO1 210159Z 14005KT 30/15 A3007 RMK A01 T02980146  RH  040%=      5-min Rain = 0
KGO1 210200Z 14005KT 30/15 A3008 RMK A01 T02960146  RH  040%=      5-min Rain = 0
KGO1 210201Z 14005KT 30/15 A3008 RMK A01 T02960147  RH  040%=      5-min Rain = 0
KGO1 210202Z 14005KT 30/15 A3008 RMK A01 T02950147  RH  041%=      5-min Rain = 0
KGO1 210203Z 14005KT 30/15 A3008 RMK A01 T02950148  RH  041%=      5-min Rain = 0
KGO1 210204Z 14005KT 29/15 A3008 RMK A01 T02940148  RH  041%=      5-min Rain = 0
KGO1 210205Z 14005KT 29/15 A3008 RMK A01 T02940148  RH  041%=      5-min Rain = 0
KGO1 210206Z 14005KT 29/15 A3008 RMK A01 T02930148  RH  041%=      5-min Rain = 0
KGO1 210207Z 14005KT 29/15 A3008 RMK A01 T02930148  RH  041%=      5-min Rain = 0
KGO1 210208Z 14005KT 29/15 A3008 RMK A01 T02920149  RH  042%=      5-min Rain = 0
KGO1 210209Z 14005KT 29/15 A3008 RMK A01 T02920149  RH  042%=      5-min Rain = 0
KGO1 210210Z 14005KT 29/15 A3008 RMK A01 T02920149  RH  042%=      5-min Rain = 0
KGO1 210211Z 14005KT 29/15 A3008 RMK A01 T02920150  RH  042%=      5-min Rain = 0
KGO1 210212Z 14005KT 29/15 A3008 RMK A01 T02920150  RH  042%=      5-min Rain = 0
KGO1 210213Z 14004KT 29/15 A3008 RMK A01 T02920151  RH  042%=      5-min Rain = 0
KGO1 210214Z 14004KT 29/15 A3007 RMK A01 T02910151  RH  042%=      5-min Rain = 0
KGO1 210215Z 14005KT 29/15 A3007 RMK A01 T02910151  RH  043%=      5-min Rain = 0
KGO1 210216Z 14005KT 29/15 A3007 RMK A01 T02910151  RH  043%=      5-min Rain = 0
KGO1 210217Z 14005KT 29/15 A3007 RMK A01 T02900151  RH  043%=      5-min Rain = 0
KGO1 210218Z 14005KT 29/15 A3007 RMK A01 T02900151  RH  043%=      5-min Rain = 0
KGO1 210219Z 14005KT 29/15 A3007 RMK A01 T02900151  RH  043%=      5-min Rain = 0
KGO1 210220Z 15005KT 29/15 A3007 RMK A01 T02900151  RH  043%=      5-min Rain = 0
KGO1 210221Z 15005KT 29/15 A3007 RMK A01 T02900151  RH  043%=      5-min Rain = 0
KGO1 210222Z 15005KT 29/15 A3007 RMK A01 T02900152  RH  043%=      5-min Rain = 0
KGO1 210223Z 15005KT 29/15 A3007 RMK A01 T02900152  RH  043%=      5-min Rain = 0
KGO1 210224Z 15005KT 29/15 A3007 RMK A01 T02900153  RH  043%=      5-min Rain = 0
KGO1 210225Z 15006KT 29/15 A3008 RMK A01 T02900153  RH  043%=      5-min Rain = 0
KGO1 210226Z 15006KT 29/15 A3008 RMK A01 T02890153  RH  044%=      5-min Rain = 0
KGO1 210227Z 15005KT 29/15 A3008 RMK A01 T02890153  RH  044%=      5-min Rain = 0
KGO1 210228Z 15005KT 29/15 A3008 RMK A01 T02890153  RH  044%=      5-min Rain = 0
KGO1 210229Z 15005KT 29/15 A3008 RMK A01 T02890154  RH  044%=      5-min Rain = 0
KGO1 210230Z 14006KT 29/15 A3008 RMK A01 T02880153  RH  044%=      5-min Rain = 0
KGO1 210231Z 14006KT 29/15 A3008 RMK A01 T02880153  RH  044%=      5-min Rain = 0
KGO1 210232Z 14006KT 29/15 A3008 RMK A01 T02880154  RH  044%=      5-min Rain = 0
KGO1 210233Z 14006KT 29/15 A3008 RMK A01 T02880153  RH  044%=      5-min Rain = 0
KGO1 210234Z 14006KT 29/15 A3008 RMK A01 T02880153  RH  044%=      5-min Rain = 0
KGO1 210235Z 14006KT 29/15 A3008 RMK A01 T02880153  RH  044%=      5-min Rain = 0
KGO1 210236Z 15006KT 29/15 A3008 RMK A01 T02880154  RH  044%=      5-min Rain = 0
KGO1 210237Z 15006KT 29/15 A3008 RMK A01 T02880154  RH  044%=      5-min Rain = 0
KGO1 210238Z 15006KT 29/15 A3008 RMK A01 T02880154  RH  044%=      5-min Rain = 0
KGO1 210239Z 15006KT 29/15 A3008 RMK A01 T02880154  RH  044%=      5-min Rain = 0
KGO1 210240Z 15005KT 29/15 A3008 RMK A01 T02890154  RH  044%=      5-min Rain = 0
KGO1 210241Z 15005KT 29/15 A3008 RMK A01 T02880154  RH  044%=      5-min Rain = 0
KGO1 210242Z 16005KT 29/15 A3008 RMK A01 T02870154  RH  044%=      5-min Rain = 0
KGO1 210243Z 16005KT 29/15 A3008 RMK A01 T02870154  RH  045%=      5-min Rain = 0
KGO1 210244Z 16006KT 29/15 A3008 RMK A01 T02860154  RH  045%=      5-min Rain = 0
KGO1 210245Z 17005KT 29/16 A3008 RMK A01 T02860155  RH  045%=      5-min Rain = 0
KGO1 210246Z 17005KT 29/16 A3008 RMK A01 T02860155  RH  045%=      5-min Rain = 0
KGO1 210247Z 18005KT 28/16 A3008 RMK A01 T02840155  RH  045%=      5-min Rain = 0
KGO1 210248Z 17006KT 28/16 A3008 RMK A01 T02840155  RH  046%=      5-min Rain = 0
KGO1 210249Z 17005KT 28/16 A3008 RMK A01 T02840155  RH  046%=      5-min Rain = 0
KGO1 210250Z 18005KT 28/16 A3008 RMK A01 T02840156  RH  046%=      5-min Rain = 0
KGO1 210251Z 18006KT 28/16 A3008 RMK A01 T02840156  RH  046%=      5-min Rain = 0
KGO1 210252Z 18006KT 28/16 A3008 RMK A01 T02840157  RH  046%=      5-min Rain = 0
KGO1 210253Z 19005KT 28/16 A3008 RMK A01 T02840158  RH  046%=      5-min Rain = 0
KGO1 210254Z 20005KT 28/16 A3008 RMK A01 T02830158  RH  046%=      5-min Rain = 0
KGO1 210255Z 19004KT 28/16 A3008 RMK A01 T02830158  RH  047%=      5-min Rain = 0
KGO1 210256Z 18005KT 28/16 A3008 RMK A01 T02810157  RH  047%=      5-min Rain = 0
KGO1 210257Z 19005KT 28/16 A3009 RMK A01 T02810157  RH  047%=      5-min Rain = 0
KGO1 210258Z 18006KT 28/16 A3009 RMK A01 T02800157  RH  047%=      5-min Rain = 0
KGO1 210259Z 18006KT 28/16 A3009 RMK A01 T02800157  RH  047%=      5-min Rain = 0
KGO1 210300Z 18006KT 28/16 A3009 RMK A01 T02790156  RH  047%=      5-min Rain = 0
KGO1 210301Z 18006KT 28/16 A3009 RMK A01 T02800157  RH  047%=      5-min Rain = 0
KGO1 210302Z 18006KT 28/16 A3009 RMK A01 T02800156  RH  047%=      5-min Rain = 0
KGO1 210303Z 18005KT 28/16 A3009 RMK A01 T02820157  RH  047%=      5-min Rain = 0
KGO1 210304Z 18005KT 28/16 A3009 RMK A01 T02830157  RH  047%=      5-min Rain = 0
KGO1 210305Z 17005KT 28/16 A3009 RMK A01 T02830157  RH  046%=      5-min Rain = 0
KGO1 210306Z 18005KT 28/16 A3009 RMK A01 T02830157  RH  046%=      5-min Rain = 0
KGO1 210307Z 17005KT 28/16 A3009 RMK A01 T02840157  RH  046%=      5-min Rain = 0
KGO1 210308Z 17005KT 28/16 A3009 RMK A01 T02840157  RH  046%=      5-min Rain = 0
KGO1 210309Z 17005KT 28/16 A3009 RMK A01 T02830157  RH  046%=      5-min Rain = 0
KGO1 210310Z 17005KT 28/16 A3009 RMK A01 T02840158  RH  046%=      5-min Rain = 0
KGO1 210311Z 17005KT 28/16 A3009 RMK A01 T02830157  RH  046%=      5-min Rain = 0
KGO1 210312Z 17005KT 28/16 A3009 RMK A01 T02830158  RH  047%=      5-min Rain = 0
KGO1 210313Z 16005KT 28/16 A3009 RMK A01 T02830158  RH  047%=      5-min Rain = 0
KGO1 210314Z 16006KT 28/16 A3009 RMK A01 T02830158  RH  047%=      5-min Rain = 0
KGO1 210315Z 16006KT 28/16 A3009 RMK A01 T02830158  RH  047%=      5-min Rain = 0
KGO1 210316Z 15006KT 28/16 A3009 RMK A01 T02830159  RH  047%=      5-min Rain = 0
KGO1 210317Z 15006KT 28/16 A3009 RMK A01 T02830159  RH  047%=      5-min Rain = 0
KGO1 210318Z 15006KT 28/16 A3009 RMK A01 T02820159  RH  047%=      5-min Rain = 0
KGO1 210319Z 14006KT 28/16 A3009 RMK A01 T02820159  RH  047%=      5-min Rain = 0
KGO1 210320Z 14005KT 28/16 A3009 RMK A01 T02810160  RH  048%=      5-min Rain = 0
KGO1 210321Z 14005KT 28/16 A3009 RMK A01 T02800160  RH  048%=      5-min Rain = 0
KGO1 210322Z 14005KT 28/16 A3009 RMK A01 T02790160  RH  048%=      5-min Rain = 0
KGO1 210323Z 14005KT 28/16 A3009 RMK A01 T02780159  RH  048%=      5-min Rain = 0
KGO1 210324Z 13005KT 28/16 A3009 RMK A01 T02770159  RH  049%=      5-min Rain = 0
KGO1 210325Z 14005KT 28/16 A3009 RMK A01 T02770159  RH  049%=      5-min Rain = 0
KGO1 210326Z 14006KT 28/16 A3009 RMK A01 T02760159  RH  049%=      5-min Rain = 0
KGO1 210327Z 14006KT 28/16 A3009 RMK A01 T02750159  RH  049%=      5-min Rain = 0
KGO1 210328Z 13006KT 27/16 A3009 RMK A01 T02740159  RH  050%=      5-min Rain = 0
KGO1 210329Z 13006KT 27/16 A3009 RMK A01 T02730160  RH  050%=      5-min Rain = 0
KGO1 210330Z 13007KT 27/16 A3009 RMK A01 T02720160  RH  050%=      5-min Rain = 0
KGO1 210331Z 13006KT 27/16 A3009 RMK A01 T02720160  RH  050%=      5-min Rain = 0
KGO1 210332Z 13007KT 27/16 A3009 RMK A01 T02710160  RH  051%=      5-min Rain = 0
KGO1 210333Z 13006KT 27/16 A3009 RMK A01 T02710160  RH  051%=      5-min Rain = 0
KGO1 210334Z 13007KT 27/16 A3009 RMK A01 T02700160  RH  051%=      5-min Rain = 0
KGO1 210335Z 13007KT 27/16 A3009 RMK A01 T02700160  RH  051%=      5-min Rain = 0
KGO1 210336Z 13007KT 27/16 A3009 RMK A01 T02700160  RH  051%=      5-min Rain = 0
KGO1 210337Z 13007KT 27/16 A3009 RMK A01 T02700160  RH  051%=      5-min Rain = 0
KGO1 210338Z 13007KT 27/16 A3009 RMK A01 T02700160  RH  051%=      5-min Rain = 0
KGO1 210339Z 13007KT 27/16 A3009 RMK A01 T02700160  RH  051%=      5-min Rain = 0
KGO1 210340Z 13007KT 27/16 A3009 RMK A01 T02700161  RH  051%=      5-min Rain = 0
KGO1 210341Z 12007KT 27/16 A3009 RMK A01 T02700161  RH  051%=      5-min Rain = 0
KGO1 210342Z 12007KT 27/16 A3009 RMK A01 T02700161  RH  051%=      5-min Rain = 0
KGO1 210343Z 12007KT 27/16 A3009 RMK A01 T02690161  RH  051%=      5-min Rain = 0
KGO1 210344Z 12007KT 27/16 A3009 RMK A01 T02690161  RH  052%=      5-min Rain = 0
KGO1 210345Z 12007KT 27/16 A3009 RMK A01 T02680161  RH  052%=      5-min Rain = 0
KGO1 210346Z 12007KT 27/16 A3009 RMK A01 T02670161  RH  052%=      5-min Rain = 0
KGO1 210347Z 13007KT 27/16 A3009 RMK A01 T02670161  RH  052%=      5-min Rain = 0
KGO1 210348Z 12007KT 27/16 A3009 RMK A01 T02660161  RH  052%=      5-min Rain = 0
KGO1 210349Z 13007KT 27/16 A3009 RMK A01 T02660161  RH  053%=      5-min Rain = 0
KGO1 210350Z 13007KT 27/16 A3009 RMK A01 T02660161  RH  053%=      5-min Rain = 0
KGO1 210351Z 13007KT 27/16 A3009 RMK A01 T02660162  RH  053%=      5-min Rain = 0
KGO1 210352Z 13007KT 27/16 A3009 RMK A01 T02660161  RH  053%=      5-min Rain = 0
KGO1 210353Z 13007KT 27/16 A3009 RMK A01 T02660162  RH  053%=      5-min Rain = 0
KGO1 210354Z 13007KT 27/16 A3009 RMK A01 T02660162  RH  053%=      5-min Rain = 0
KGO1 210355Z 13008KT 27/16 A3009 RMK A01 T02660162  RH  053%=      5-min Rain = 0
KGO1 210356Z 13008KT 27/16 A3009 RMK A01 T02660162  RH  053%=      5-min Rain = 0
KGO1 210357Z 13008KT 27/16 A3009 RMK A01 T02670163  RH  053%=      5-min Rain = 0
KGO1 210358Z 14008KT 27/16 A3009 RMK A01 T02670163  RH  053%=      5-min Rain = 0
KGO1 210359Z 14007KT 27/16 A3009 RMK A01 T02680163  RH  053%=      5-min Rain = 0
KGO1 210400Z 14007KT 27/16 A3009 RMK A01 T02690164  RH  053%=      5-min Rain = 0
KGO1 210401Z 14007KT 27/16 A3009 RMK A01 T02700164  RH  052%=      5-min Rain = 0
KGO1 210402Z 14008KT 27/16 A3009 RMK A01 T02710164  RH  052%=      5-min Rain = 0
KGO1 210403Z 14008KT 27/17 A301 RMK A01 T02720165  RH  052%=      5-min Rain = 0
KGO1 210404Z 14008KT 27/17 A301 RMK A01 T02720165  RH  052%=      5-min Rain = 0
KGO1 210405Z 14008KT 27/17 A301 RMK A01 T02730165  RH  052%=      5-min Rain = 0
KGO1 210406Z 14008KT 27/16 A301 RMK A01 T02730164  RH  052%=      5-min Rain = 0
KGO1 210407Z 14008KT 27/16 A301 RMK A01 T02730164  RH  051%=      5-min Rain = 0
KGO1 210408Z 14008KT 27/17 A301 RMK A01 T02730165  RH  051%=      5-min Rain = 0
KGO1 210409Z 14008KT 27/16 A301 RMK A01 T02730164  RH  051%=      5-min Rain = 0
KGO1 210410Z 14008KT 27/17 A301 RMK A01 T02730165  RH  052%=      5-min Rain = 0
KGO1 210411Z 14008KT 27/17 A301 RMK A01 T02730165  RH  052%=      5-min Rain = 0
KGO1 210412Z 14007KT 27/16 A301 RMK A01 T02720164  RH  052%=      5-min Rain = 0
KGO1 210413Z 14008KT 27/17 A301 RMK A01 T02720165  RH  052%=      5-min Rain = 0
KGO1 210414Z 14008KT 27/17 A301 RMK A01 T02720165  RH  052%=      5-min Rain = 0
KGO1 210415Z 14007KT 27/17 A301 RMK A01 T02710165  RH  052%=      5-min Rain = 0
KGO1 210416Z 14007KT 27/17 A301 RMK A01 T02710165  RH  052%=      5-min Rain = 0
KGO1 210417Z 14007KT 27/17 A301 RMK A01 T02710165  RH  052%=      5-min Rain = 0
KGO1 210418Z 14007KT 27/16 A301 RMK A01 T02700164  RH  052%=      5-min Rain = 0
KGO1 210419Z 14006KT 27/16 A301 RMK A01 T02700164  RH  052%=      5-min Rain = 0
KGO1 210420Z 14007KT 27/17 A301 RMK A01 T02700165  RH  052%=      5-min Rain = 0
KGO1 210421Z 14006KT 27/16 A301 RMK A01 T02690164  RH  053%=      5-min Rain = 0
KGO1 210422Z 14006KT 27/16 A301 RMK A01 T02690164  RH  053%=      5-min Rain = 0
KGO1 210423Z 15007KT 27/16 A301 RMK A01 T02680164  RH  053%=      5-min Rain = 0
KGO1 210424Z 15007KT 27/16 A301 RMK A01 T02680164  RH  053%=      5-min Rain = 0
KGO1 210425Z 15007KT 27/16 A301 RMK A01 T02680163  RH  053%=      5-min Rain = 0
KGO1 210426Z 15007KT 27/16 A301 RMK A01 T02680163  RH  053%=      5-min Rain = 0
KGO1 210427Z 15007KT 27/16 A301 RMK A01 T02680163  RH  052%=      5-min Rain = 0
KGO1 210428Z 15007KT 27/16 A301 RMK A01 T02680163  RH  052%=      5-min Rain = 0
KGO1 210429Z 15007KT 27/16 A301 RMK A01 T02680162  RH  052%=      5-min Rain = 0
KGO1 210430Z 15008KT 27/16 A301 RMK A01 T02690161  RH  052%=      5-min Rain = 0
KGO1 210431Z 15008KT 27/16 A301 RMK A01 T02700160  RH  051%=      5-min Rain = 0
KGO1 210432Z 15007KT 27/16 A301 RMK A01 T02720160  RH  051%=      5-min Rain = 0
KGO1 210433Z 15008KT 27/16 A301 RMK A01 T02720161  RH  050%=      5-min Rain = 0
KGO1 210434Z 15008KT 27/16 A301 RMK A01 T02720160  RH  050%=      5-min Rain = 0
KGO1 210435Z 15008KT 27/16 A301 RMK A01 T02720160  RH  050%=      5-min Rain = 0
KGO1 210436Z 15008KT 27/16 A301 RMK A01 T02720159  RH  050%=      5-min Rain = 0
KGO1 210437Z 15008KT 27/16 A301 RMK A01 T02720159  RH  050%=      5-min Rain = 0
KGO1 210438Z 15008KT 27/16 A3009 RMK A01 T02720159  RH  050%=      5-min Rain = 0
KGO1 210439Z 15008KT 27/16 A3009 RMK A01 T02720159  RH  050%=      5-min Rain = 0
KGO1 210440Z 15008KT 27/16 A3009 RMK A01 T02720159  RH  050%=      5-min Rain = 0
KGO1 210441Z 15008KT 27/16 A3009 RMK A01 T02720159  RH  050%=      5-min Rain = 0
KGO1 210442Z 15008KT 27/16 A3009 RMK A01 T02710159  RH  050%=      5-min Rain = 0
KGO1 210443Z 15008KT 27/16 A3009 RMK A01 T02700159  RH  050%=      5-min Rain = 0
KGO1 210444Z 15009KT 27/16 A3009 RMK A01 T02700159  RH  050%=      5-min Rain = 0
KGO1 210445Z 15008KT 27/16 A3009 RMK A01 T02710159  RH  050%=      5-min Rain = 0
KGO1 210446Z 15008KT 27/16 A3009 RMK A01 T02710159  RH  050%=      5-min Rain = 0
KGO1 210447Z 15008KT 27/16 A3009 RMK A01 T02710159  RH  050%=      5-min Rain = 0
KGO1 210448Z 15008KT 27/16 A3009 RMK A01 T02710158  RH  050%=      5-min Rain = 0
KGO1 210449Z 16008KT 27/16 A3009 RMK A01 T02710159  RH  050%=      5-min Rain = 0
KGO1 210450Z 16008KT 27/16 A3009 RMK A01 T02710159  RH  050%=      5-min Rain = 0
KGO1 210451Z 16008KT 27/16 A3009 RMK A01 T02710159  RH  050%=      5-min Rain = 0
KGO1 210452Z 16008KT 27/16 A3009 RMK A01 T02710159  RH  050%=      5-min Rain = 0
KGO1 210453Z 16008KT 27/16 A3009 RMK A01 T02700159  RH  050%=      5-min Rain = 0
KGO1 210454Z 16008KT 27/16 A3009 RMK A01 T02700159  RH  051%=      5-min Rain = 0
KGO1 210455Z 16008KT 27/16 A3009 RMK A01 T02700159  RH  051%=      5-min Rain = 0
KGO1 210456Z 16007KT 27/16 A3009 RMK A01 T02690159  RH  051%=      5-min Rain = 0
KGO1 210457Z 16008KT 27/16 A3009 RMK A01 T02690159  RH  051%=      5-min Rain = 0
KGO1 210458Z 16007KT 27/16 A3009 RMK A01 T02690159  RH  051%=      5-min Rain = 0
KGO1 210459Z 16007KT 27/16 A3009 RMK A01 T02690159  RH  051%=      5-min Rain = 0

Page generated in 0.1223 seconds.